CZN1 YBBN-WSSS
Flight info
| Callsign | CZN1 |
|---|---|
| Flight time | 7h 47m |
| Altitude | 36000 |
| Route | WACKO V250 UNVAT DCT 23S145E 18S136E/N0499F380 16S132E 14S128E 1130S12400E DCT NMA DCT HEREN/N0490F400 DCT 0331S11022E DCT SURGA T23 UGEBO UGEBO1B |
| Aircraft | A388/J-SADE2E3FGHIJ3J4J5M1RWXY/LB1D1 |
Departure
| Time | 2026-05-07 04:34 |
|---|---|
| Airport | Brisbane International Airport (YBBN) |
Arrival
| Time | 2026-05-07 12:21 |
|---|---|
| Airport | Singapore Changi Airport (WSSS) |
| Time | Latitude | Longitude | Altitude | Speed | Heading |
|---|---|---|---|---|---|
| 2026-05-07 04:00 | -27.40055 | 153.11366 | 26 ft | 0 kts | 296° |
| 2026-05-07 04:15 | -27.40053 | 153.11361 | 26 ft | 0 kts | 296° |
| 2026-05-07 04:19 | -27.40053 | 153.11362 | 26 ft | 1 kts | 296° |
| 2026-05-07 04:19 | -27.40063 | 153.11383 | 25 ft | 2 kts | 296° |
| 2026-05-07 04:19 | -27.40072 | 153.11408 | 24 ft | 4 kts | 284° |
| 2026-05-07 04:20 | -27.40075 | 153.11436 | 23 ft | 4 kts | 259° |
| 2026-05-07 04:20 | -27.40065 | 153.11463 | 24 ft | 4 kts | 227° |
| 2026-05-07 04:20 | -27.40044 | 153.11481 | 25 ft | 4 kts | 207° |
| 2026-05-07 04:21 | -27.40012 | 153.11495 | 25 ft | 0 kts | 205° |
| 2026-05-07 04:23 | -27.40023 | 153.11489 | 25 ft | 3 kts | 205° |
| 2026-05-07 04:23 | -27.40048 | 153.11476 | 25 ft | 5 kts | 205° |
| 2026-05-07 04:23 | -27.40086 | 153.11456 | 26 ft | 7 kts | 205° |
| 2026-05-07 04:23 | -27.40129 | 153.11433 | 26 ft | 7 kts | 202° |
| 2026-05-07 04:24 | -27.40175 | 153.11421 | 26 ft | 7 kts | 169° |
| 2026-05-07 04:24 | -27.40211 | 153.11449 | 26 ft | 5 kts | 105° |
| 2026-05-07 04:24 | -27.40205 | 153.11480 | 26 ft | 5 kts | 56° |
| 2026-05-07 04:24 | -27.40175 | 153.11514 | 26 ft | 8 kts | 31° |
| 2026-05-07 04:25 | -27.40117 | 153.11551 | 26 ft | 12 kts | 28° |
| 2026-05-07 04:25 | -27.40034 | 153.11597 | 26 ft | 15 kts | 28° |
| 2026-05-07 04:25 | -27.39932 | 153.11661 | 27 ft | 18 kts | 26° |
| 2026-05-07 04:25 | -27.39813 | 153.11728 | 26 ft | 20 kts | 27° |
| 2026-05-07 04:26 | -27.39684 | 153.11791 | 26 ft | 21 kts | 27° |
| 2026-05-07 04:26 | -27.39550 | 153.11871 | 26 ft | 22 kts | 23° |
| 2026-05-07 04:26 | -27.39481 | 153.11913 | 26 ft | 1 kts | 44° |
| 2026-05-07 04:26 | -27.39471 | 153.11923 | 26 ft | 3 kts | 36° |
| 2026-05-07 04:27 | -27.39443 | 153.11941 | 26 ft | 6 kts | 22° |
| 2026-05-07 04:27 | -27.39389 | 153.11967 | 26 ft | 11 kts | 25° |
| 2026-05-07 04:27 | -27.39310 | 153.12011 | 26 ft | 15 kts | 27° |
| 2026-05-07 04:27 | -27.39210 | 153.12069 | 26 ft | 18 kts | 27° |
| 2026-05-07 04:28 | -27.39092 | 153.12135 | 26 ft | 20 kts | 26° |
| 2026-05-07 04:28 | -27.38960 | 153.12209 | 26 ft | 22 kts | 27° |
| 2026-05-07 04:28 | -27.38819 | 153.12290 | 26 ft | 24 kts | 27° |
| 2026-05-07 04:28 | -27.38669 | 153.12376 | 26 ft | 25 kts | 27° |
| 2026-05-07 04:29 | -27.38513 | 153.12465 | 26 ft | 26 kts | 27° |
| 2026-05-07 04:29 | -27.38352 | 153.12560 | 26 ft | 27 kts | 27° |
| 2026-05-07 04:29 | -27.38186 | 153.12656 | 26 ft | 27 kts | 26° |
| 2026-05-07 04:29 | -27.38015 | 153.12753 | 26 ft | 28 kts | 26° |
| 2026-05-07 04:30 | -27.37841 | 153.12849 | 30 ft | 28 kts | 25° |
| 2026-05-07 04:30 | -27.37664 | 153.12944 | 30 ft | 28 kts | 27° |
| 2026-05-07 04:30 | -27.37502 | 153.13039 | 29 ft | 25 kts | 27° |
| 2026-05-07 04:30 | -27.37372 | 153.13112 | 29 ft | 13 kts | 26° |
| 2026-05-07 04:31 | -27.37292 | 153.13162 | 30 ft | 15 kts | 47° |
| 2026-05-07 04:31 | -27.37286 | 153.13273 | 26 ft | 17 kts | 118° |
| 2026-05-07 04:31 | -27.37352 | 153.13389 | 27 ft | 18 kts | 142° |
| 2026-05-07 04:31 | -27.37458 | 153.13440 | 28 ft | 13 kts | 204° |
| 2026-05-07 04:32 | -27.37512 | 153.13394 | 27 ft | 9 kts | 195° |
| 2026-05-07 04:32 | -27.37578 | 153.13373 | 27 ft | 10 kts | 204° |
| 2026-05-07 04:32 | -27.37633 | 153.13335 | 27 ft | 9 kts | 208° |
| 2026-05-07 04:32 | -27.37699 | 153.13299 | 27 ft | 19 kts | 206° |
| 2026-05-07 04:33 | -27.38034 | 153.13107 | 27 ft | 88 kts | 206° |
| 2026-05-07 04:33 | -27.38751 | 153.12700 | 31 ft | 138 kts | 207° |
| 2026-05-07 04:33 | -27.39704 | 153.12141 | 40 ft | 168 kts | 207° |
| 2026-05-07 04:33 | -27.40725 | 153.11572 | 564 ft | 160 kts | 211° |
| 2026-05-07 04:34 | -27.41731 | 153.10997 | 874 ft | 169 kts | 212° |
| 2026-05-07 04:34 | -27.42854 | 153.10354 | 1054 ft | 190 kts | 211° |
| 2026-05-07 04:34 | -27.44040 | 153.09660 | 1339 ft | 197 kts | 211° |
| 2026-05-07 04:34 | -27.45295 | 153.08926 | 1426 ft | 212 kts | 211° |
| 2026-05-07 04:35 | -27.46676 | 153.08116 | 1707 ft | 234 kts | 210° |
| 2026-05-07 04:35 | -27.48114 | 153.07180 | 2271 ft | 237 kts | 223° |
| 2026-05-07 04:35 | -27.49092 | 153.05783 | 3300 ft | 223 kts | 246° |
| 2026-05-07 04:35 | -27.49473 | 153.04103 | 3984 ft | 229 kts | 268° |
| 2026-05-07 04:36 | -27.49247 | 153.02296 | 4564 ft | 236 kts | 279° |
| 2026-05-07 04:36 | -27.48938 | 153.00470 | 5294 ft | 239 kts | 279° |
| 2026-05-07 04:36 | -27.48648 | 152.98605 | 5990 ft | 244 kts | 279° |
| 2026-05-07 04:36 | -27.48362 | 152.96717 | 6685 ft | 246 kts | 279° |
| 2026-05-07 04:37 | -27.48075 | 152.94813 | 7444 ft | 246 kts | 280° |
| 2026-05-07 04:37 | -27.47745 | 152.92946 | 8135 ft | 249 kts | 289° |
| 2026-05-07 04:37 | -27.46932 | 152.91224 | 8813 ft | 252 kts | 308° |
| 2026-05-07 04:37 | -27.45588 | 152.89938 | 9565 ft | 258 kts | 329° |
| 2026-05-07 04:38 | -27.43939 | 152.89070 | 10051 ft | 269 kts | 332° |
| 2026-05-07 04:38 | -27.42191 | 152.88152 | 10253 ft | 287 kts | 331° |
| 2026-05-07 04:38 | -27.40331 | 152.87160 | 10413 ft | 305 kts | 331° |
| 2026-05-07 04:38 | -27.38363 | 152.86108 | 10613 ft | 320 kts | 332° |
| 2026-05-07 04:39 | -27.36327 | 152.85023 | 11117 ft | 325 kts | 331° |
| 2026-05-07 04:39 | -27.34279 | 152.83935 | 11732 ft | 327 kts | 331° |
| 2026-05-07 04:39 | -27.32210 | 152.82836 | 12275 ft | 330 kts | 331° |
| 2026-05-07 04:39 | -27.30118 | 152.81725 | 12768 ft | 336 kts | 330° |
| 2026-05-07 04:40 | -27.28004 | 152.80602 | 13251 ft | 338 kts | 331° |
| 2026-05-07 04:40 | -27.25903 | 152.79486 | 13820 ft | 340 kts | 330° |
| 2026-05-07 04:40 | -27.23761 | 152.78343 | 14351 ft | 341 kts | 329° |
| 2026-05-07 04:40 | -27.21651 | 152.77113 | 14864 ft | 341 kts | 327° |
| 2026-05-07 04:41 | -27.19710 | 152.75617 | 15431 ft | 337 kts | 315° |
| 2026-05-07 04:41 | -27.18143 | 152.73694 | 16011 ft | 333 kts | 303° |
| 2026-05-07 04:41 | -27.16973 | 152.71470 | 16559 ft | 332 kts | 295° |
| 2026-05-07 04:41 | -27.15921 | 152.69151 | 17036 ft | 334 kts | 296° |
| 2026-05-07 04:42 | -27.14847 | 152.66837 | 17562 ft | 334 kts | 296° |
| 2026-05-07 04:42 | -27.13759 | 152.64517 | 18049 ft | 337 kts | 296° |
| 2026-05-07 04:42 | -27.12662 | 152.62185 | 18526 ft | 338 kts | 296° |
| 2026-05-07 04:42 | -27.11559 | 152.59842 | 18924 ft | 340 kts | 296° |
| 2026-05-07 04:43 | -27.10453 | 152.57493 | 19374 ft | 340 kts | 296° |
| 2026-05-07 04:43 | -27.09346 | 152.55140 | 19710 ft | 344 kts | 296° |
| 2026-05-07 04:43 | -27.08226 | 152.52763 | 20083 ft | 344 kts | 296° |
| 2026-05-07 04:43 | -27.07108 | 152.50389 | 20486 ft | 347 kts | 296° |
| 2026-05-07 04:44 | -27.05985 | 152.48004 | 20911 ft | 348 kts | 296° |
| 2026-05-07 04:44 | -27.04849 | 152.45596 | 21338 ft | 348 kts | 296° |
| 2026-05-07 04:44 | -27.03728 | 152.43224 | 21705 ft | 350 kts | 296° |
| 2026-05-07 04:44 | -27.02569 | 152.40775 | 22111 ft | 352 kts | 296° |
| 2026-05-07 04:45 | -27.01442 | 152.38394 | 22487 ft | 354 kts | 296° |
| 2026-05-07 04:45 | -27.00289 | 152.35958 | 22882 ft | 355 kts | 296° |
| 2026-05-07 04:45 | -26.99126 | 152.33505 | 23283 ft | 356 kts | 296° |
| 2026-05-07 04:45 | -26.98027 | 152.31187 | 23630 ft | 358 kts | 296° |
| 2026-05-07 04:46 | -26.96816 | 152.28634 | 24006 ft | 358 kts | 296° |
| 2026-05-07 04:46 | -26.95645 | 152.26165 | 24381 ft | 359 kts | 297° |
| 2026-05-07 04:46 | -26.94470 | 152.23689 | 24727 ft | 359 kts | 296° |
| 2026-05-07 04:46 | -26.93295 | 152.21217 | 25105 ft | 359 kts | 297° |
| 2026-05-07 04:47 | -26.92123 | 152.18752 | 25467 ft | 359 kts | 297° |
| 2026-05-07 04:47 | -26.90945 | 152.16276 | 25856 ft | 360 kts | 297° |
| 2026-05-07 04:47 | -26.89763 | 152.13793 | 26230 ft | 361 kts | 297° |
| 2026-05-07 04:47 | -26.88582 | 152.11312 | 26649 ft | 361 kts | 297° |
| 2026-05-07 04:48 | -26.87399 | 152.08830 | 27064 ft | 362 kts | 297° |
| 2026-05-07 04:48 | -26.86213 | 152.06344 | 27467 ft | 362 kts | 297° |
| 2026-05-07 04:48 | -26.85026 | 152.03855 | 27924 ft | 362 kts | 297° |
| 2026-05-07 04:48 | -26.83839 | 152.01368 | 28364 ft | 363 kts | 297° |
| 2026-05-07 04:49 | -26.82647 | 151.98871 | 28740 ft | 365 kts | 297° |
| 2026-05-07 04:49 | -26.81448 | 151.96361 | 29145 ft | 366 kts | 297° |
| 2026-05-07 04:49 | -26.80244 | 151.93842 | 29554 ft | 368 kts | 297° |
| 2026-05-07 04:49 | -26.79029 | 151.91306 | 29920 ft | 371 kts | 297° |
| 2026-05-07 04:50 | -26.77871 | 151.88896 | 30286 ft | 372 kts | 297° |
| 2026-05-07 04:50 | -26.76645 | 151.86344 | 30683 ft | 372 kts | 297° |
| 2026-05-07 04:50 | -26.75416 | 151.83789 | 31090 ft | 373 kts | 297° |
| 2026-05-07 04:50 | -26.74186 | 151.81233 | 31463 ft | 373 kts | 297° |
| 2026-05-07 04:51 | -26.72957 | 151.78679 | 31818 ft | 375 kts | 297° |
| 2026-05-07 04:51 | -26.71717 | 151.76104 | 32179 ft | 375 kts | 296° |
| 2026-05-07 04:51 | -26.70478 | 151.73532 | 32553 ft | 376 kts | 296° |
| 2026-05-07 04:51 | -26.69236 | 151.70954 | 32919 ft | 377 kts | 296° |
| 2026-05-07 04:52 | -26.67988 | 151.68366 | 33282 ft | 378 kts | 296° |
| 2026-05-07 04:52 | -26.66739 | 151.65779 | 33631 ft | 379 kts | 296° |
| 2026-05-07 04:52 | -26.65482 | 151.63175 | 33996 ft | 380 kts | 296° |
| 2026-05-07 04:52 | -26.64222 | 151.60568 | 34285 ft | 382 kts | 296° |
| 2026-05-07 04:53 | -26.62957 | 151.57951 | 34568 ft | 384 kts | 296° |
| 2026-05-07 04:53 | -26.61686 | 151.55326 | 34879 ft | 384 kts | 296° |
| 2026-05-07 04:53 | -26.60416 | 151.52703 | 35265 ft | 383 kts | 296° |
| 2026-05-07 04:53 | -26.59150 | 151.50088 | 35671 ft | 381 kts | 296° |
| 2026-05-07 04:54 | -26.57905 | 151.47522 | 36021 ft | 381 kts | 296° |
| 2026-05-07 04:54 | -26.56616 | 151.44862 | 36070 ft | 384 kts | 296° |
| 2026-05-07 04:54 | -26.54106 | 151.39690 | 36075 ft | 383 kts | 296° |
| 2026-05-07 04:55 | -26.51566 | 151.34462 | 36064 ft | 383 kts | 296° |
| 2026-05-07 04:55 | -26.49025 | 151.29239 | 36079 ft | 382 kts | 296° |
| 2026-05-07 04:56 | -26.46479 | 151.24013 | 36062 ft | 383 kts | 296° |
| 2026-05-07 04:56 | -26.43942 | 151.18813 | 36055 ft | 382 kts | 296° |
| 2026-05-07 04:57 | -26.41410 | 151.13622 | 36056 ft | 381 kts | 296° |
| 2026-05-07 04:57 | -26.38886 | 151.08432 | 36051 ft | 380 kts | 296° |
| 2026-05-07 04:58 | -26.36366 | 151.03254 | 36052 ft | 380 kts | 296° |
| 2026-05-07 04:58 | -26.33841 | 150.98075 | 36059 ft | 380 kts | 296° |
| 2026-05-07 04:59 | -26.31308 | 150.92886 | 36067 ft | 381 kts | 296° |
| 2026-05-07 04:59 | -26.29198 | 150.88570 | 36073 ft | 382 kts | 296° |
| 2026-05-07 05:00 | -26.26648 | 150.83357 | 36083 ft | 383 kts | 296° |
| 2026-05-07 05:00 | -26.24093 | 150.78142 | 36090 ft | 384 kts | 296° |
| 2026-05-07 05:01 | -26.21533 | 150.72922 | 36096 ft | 385 kts | 296° |
| 2026-05-07 05:01 | -26.18965 | 150.67694 | 36096 ft | 385 kts | 296° |
| 2026-05-07 05:02 | -26.16396 | 150.62468 | 36097 ft | 385 kts | 296° |
| 2026-05-07 05:02 | -26.13832 | 150.57259 | 36094 ft | 384 kts | 296° |
| 2026-05-07 05:03 | -26.11282 | 150.52083 | 36090 ft | 384 kts | 296° |
| 2026-05-07 05:03 | -26.08717 | 150.46884 | 36088 ft | 383 kts | 296° |
| 2026-05-07 05:04 | -26.06153 | 150.41694 | 36086 ft | 383 kts | 296° |
| 2026-05-07 05:04 | -26.03588 | 150.36506 | 36089 ft | 382 kts | 296° |
| 2026-05-07 05:05 | -26.01026 | 150.31331 | 36080 ft | 382 kts | 296° |
| 2026-05-07 05:05 | -25.98460 | 150.26153 | 36081 ft | 383 kts | 296° |
| 2026-05-07 05:06 | -25.95893 | 150.20978 | 36086 ft | 383 kts | 296° |
| 2026-05-07 05:06 | -25.93319 | 150.15796 | 36085 ft | 383 kts | 296° |
| 2026-05-07 05:07 | -25.90743 | 150.10619 | 36090 ft | 383 kts | 296° |
| 2026-05-07 05:07 | -25.88160 | 150.05430 | 36059 ft | 383 kts | 296° |
| 2026-05-07 05:08 | -25.85582 | 150.00259 | 36085 ft | 383 kts | 296° |
| 2026-05-07 05:08 | -25.82999 | 149.95082 | 36089 ft | 384 kts | 296° |
| 2026-05-07 05:09 | -25.80412 | 149.89904 | 36092 ft | 384 kts | 296° |
| 2026-05-07 05:09 | -25.77712 | 149.84814 | 36091 ft | 385 kts | 298° |
| 2026-05-07 05:10 | -25.74911 | 149.79759 | 36096 ft | 385 kts | 298° |
| 2026-05-07 05:10 | -25.72130 | 149.74685 | 36096 ft | 385 kts | 298° |
| 2026-05-07 05:11 | -25.69355 | 149.69595 | 36097 ft | 385 kts | 298° |
| 2026-05-07 05:11 | -25.66587 | 149.64523 | 36096 ft | 385 kts | 298° |
| 2026-05-07 05:12 | -25.63807 | 149.59435 | 36104 ft | 385 kts | 298° |
| 2026-05-07 05:12 | -25.61029 | 149.54359 | 36099 ft | 385 kts | 298° |
| 2026-05-07 05:13 | -25.58248 | 149.49285 | 36097 ft | 385 kts | 298° |
| 2026-05-07 05:13 | -25.55464 | 149.44210 | 36097 ft | 385 kts | 298° |
| 2026-05-07 05:14 | -25.52681 | 149.39143 | 36101 ft | 385 kts | 298° |
| 2026-05-07 05:14 | -25.49897 | 149.34079 | 36101 ft | 385 kts | 298° |
| 2026-05-07 05:15 | -25.47114 | 149.29025 | 36100 ft | 385 kts | 298° |
| 2026-05-07 05:15 | -25.44323 | 149.23960 | 36104 ft | 385 kts | 298° |
| 2026-05-07 05:16 | -25.41535 | 149.18905 | 36063 ft | 385 kts | 298° |
| 2026-05-07 05:16 | -25.38750 | 149.13862 | 36092 ft | 384 kts | 298° |
| 2026-05-07 05:17 | -25.35957 | 149.08809 | 36098 ft | 385 kts | 298° |
| 2026-05-07 05:17 | -25.33162 | 149.03758 | 36111 ft | 386 kts | 298° |
| 2026-05-07 05:18 | -25.30353 | 148.98684 | 36089 ft | 387 kts | 299° |
| 2026-05-07 05:18 | -25.27531 | 148.93599 | 36095 ft | 389 kts | 299° |
| 2026-05-07 05:19 | -25.24701 | 148.88505 | 36108 ft | 390 kts | 299° |
| 2026-05-07 05:19 | -25.21877 | 148.83425 | 36116 ft | 391 kts | 299° |
| 2026-05-07 05:20 | -25.19029 | 148.78305 | 36121 ft | 391 kts | 299° |
| 2026-05-07 05:20 | -25.16180 | 148.73190 | 36118 ft | 391 kts | 299° |
| 2026-05-07 05:21 | -25.11909 | 148.65534 | 36107 ft | 390 kts | 299° |
| 2026-05-07 05:22 | -25.09060 | 148.60432 | 36105 ft | 390 kts | 299° |
| 2026-05-07 05:22 | -25.06217 | 148.55348 | 36102 ft | 389 kts | 299° |
| 2026-05-07 05:23 | -25.03369 | 148.50260 | 36097 ft | 389 kts | 299° |
| 2026-05-07 05:23 | -25.00527 | 148.45187 | 36093 ft | 389 kts | 299° |
| 2026-05-07 05:24 | -24.97680 | 148.40112 | 36093 ft | 389 kts | 299° |
| 2026-05-07 05:24 | -24.94833 | 148.35041 | 36079 ft | 389 kts | 299° |
| 2026-05-07 05:25 | -24.91983 | 148.29971 | 36082 ft | 389 kts | 299° |
| 2026-05-07 05:25 | -24.89149 | 148.24936 | 36106 ft | 389 kts | 299° |
| 2026-05-07 05:26 | -24.86299 | 148.19883 | 36076 ft | 388 kts | 299° |
| 2026-05-07 05:26 | -24.83448 | 148.14824 | 36103 ft | 389 kts | 299° |
| 2026-05-07 05:27 | -24.80588 | 148.09755 | 36106 ft | 390 kts | 299° |
| 2026-05-07 05:27 | -24.77718 | 148.04674 | 36080 ft | 391 kts | 299° |
| 2026-05-07 05:28 | -24.74840 | 147.99586 | 36101 ft | 392 kts | 299° |
| 2026-05-07 05:28 | -24.71952 | 147.94487 | 36106 ft | 392 kts | 299° |
| 2026-05-07 05:29 | -24.69064 | 147.89398 | 36103 ft | 394 kts | 300° |
| 2026-05-07 05:29 | -24.66160 | 147.84279 | 36111 ft | 394 kts | 300° |
| 2026-05-07 05:30 | -24.63263 | 147.79175 | 36120 ft | 393 kts | 300° |
| 2026-05-07 05:30 | -24.60365 | 147.74081 | 36112 ft | 393 kts | 300° |
| 2026-05-07 05:31 | -24.57468 | 147.68996 | 36107 ft | 393 kts | 300° |
| 2026-05-07 05:31 | -24.54567 | 147.63904 | 36098 ft | 392 kts | 300° |
| 2026-05-07 05:32 | -24.51668 | 147.58822 | 36090 ft | 392 kts | 300° |
| 2026-05-07 05:32 | -24.48776 | 147.53759 | 36077 ft | 391 kts | 300° |
| 2026-05-07 05:33 | -24.45901 | 147.48729 | 36081 ft | 391 kts | 300° |
| 2026-05-07 05:33 | -24.42990 | 147.43643 | 36084 ft | 391 kts | 300° |
| 2026-05-07 05:34 | -24.40109 | 147.38614 | 36082 ft | 392 kts | 300° |
| 2026-05-07 05:34 | -24.37208 | 147.33555 | 36091 ft | 392 kts | 300° |
| 2026-05-07 05:35 | -24.34298 | 147.28488 | 36093 ft | 393 kts | 300° |
| 2026-05-07 05:35 | -24.31385 | 147.23418 | 36097 ft | 393 kts | 300° |
| 2026-05-07 05:36 | -24.28471 | 147.18353 | 36101 ft | 393 kts | 300° |
| 2026-05-07 05:36 | -24.25550 | 147.13281 | 36101 ft | 393 kts | 300° |
| 2026-05-07 05:37 | -24.22632 | 147.08219 | 36093 ft | 393 kts | 300° |
| 2026-05-07 05:37 | -24.19713 | 147.03163 | 36091 ft | 393 kts | 300° |
| 2026-05-07 05:38 | -24.16794 | 146.98109 | 36090 ft | 393 kts | 300° |
| 2026-05-07 05:38 | -24.13869 | 146.93050 | 36098 ft | 393 kts | 300° |
| 2026-05-07 05:39 | -24.10941 | 146.87989 | 36097 ft | 394 kts | 300° |
| 2026-05-07 05:39 | -24.08004 | 146.82922 | 36106 ft | 394 kts | 300° |
| 2026-05-07 05:40 | -24.05065 | 146.77854 | 36098 ft | 394 kts | 300° |
| 2026-05-07 05:40 | -24.02146 | 146.72828 | 36069 ft | 394 kts | 300° |
| 2026-05-07 05:41 | -23.99189 | 146.67740 | 36089 ft | 394 kts | 300° |
| 2026-05-07 05:41 | -23.96268 | 146.62720 | 36086 ft | 394 kts | 300° |
| 2026-05-07 05:42 | -23.93318 | 146.57655 | 36086 ft | 395 kts | 300° |
| 2026-05-07 05:42 | -23.90368 | 146.52595 | 36089 ft | 395 kts | 300° |
| 2026-05-07 05:43 | -23.87422 | 146.47546 | 36089 ft | 395 kts | 300° |
| 2026-05-07 05:43 | -23.84466 | 146.42486 | 36088 ft | 395 kts | 300° |
| 2026-05-07 05:44 | -23.81509 | 146.37430 | 36093 ft | 395 kts | 300° |
| 2026-05-07 05:44 | -23.78552 | 146.32379 | 36092 ft | 395 kts | 300° |
| 2026-05-07 05:45 | -23.75589 | 146.27322 | 36093 ft | 395 kts | 300° |
| 2026-05-07 05:45 | -23.72627 | 146.22272 | 36096 ft | 395 kts | 300° |
| 2026-05-07 05:46 | -23.69655 | 146.17211 | 36089 ft | 395 kts | 300° |
| 2026-05-07 05:46 | -23.66691 | 146.12168 | 36085 ft | 395 kts | 300° |
| 2026-05-07 05:47 | -23.63738 | 146.07149 | 36083 ft | 395 kts | 300° |
| 2026-05-07 05:47 | -23.60751 | 146.02078 | 36087 ft | 395 kts | 300° |
| 2026-05-07 05:48 | -23.57843 | 145.97143 | 36093 ft | 398 kts | 300° |
| 2026-05-07 05:48 | -23.54846 | 145.92065 | 36086 ft | 397 kts | 300° |
| 2026-05-07 05:49 | -23.51873 | 145.87034 | 36083 ft | 395 kts | 300° |
| 2026-05-07 05:49 | -23.48898 | 145.82000 | 36079 ft | 396 kts | 300° |
| 2026-05-07 05:50 | -23.46415 | 145.77805 | 36088 ft | 396 kts | 300° |
| 2026-05-07 05:50 | -23.43428 | 145.72761 | 36081 ft | 396 kts | 300° |
| 2026-05-07 05:51 | -23.40442 | 145.67726 | 36080 ft | 396 kts | 300° |
| 2026-05-07 05:51 | -23.37449 | 145.62684 | 36081 ft | 396 kts | 300° |
| 2026-05-07 05:52 | -23.34440 | 145.57619 | 36079 ft | 396 kts | 300° |
| 2026-05-07 05:52 | -23.31463 | 145.52613 | 36089 ft | 396 kts | 300° |
| 2026-05-07 05:53 | -23.28468 | 145.47582 | 36077 ft | 397 kts | 300° |
| 2026-05-07 05:53 | -23.25465 | 145.42542 | 36083 ft | 397 kts | 300° |
| 2026-05-07 05:54 | -23.22465 | 145.37514 | 36084 ft | 397 kts | 300° |
| 2026-05-07 05:54 | -23.19461 | 145.32482 | 36078 ft | 397 kts | 300° |
| 2026-05-07 05:55 | -23.16455 | 145.27451 | 36086 ft | 397 kts | 300° |
| 2026-05-07 05:55 | -23.13450 | 145.22428 | 36076 ft | 397 kts | 300° |
| 2026-05-07 05:56 | -23.10442 | 145.17404 | 36072 ft | 397 kts | 300° |
| 2026-05-07 05:56 | -23.07431 | 145.12377 | 36073 ft | 397 kts | 300° |
| 2026-05-07 05:57 | -23.04414 | 145.07345 | 36075 ft | 397 kts | 300° |
| 2026-05-07 05:57 | -23.01395 | 145.02314 | 36080 ft | 398 kts | 300° |
| 2026-05-07 05:58 | -22.98465 | 144.97274 | 36076 ft | 397 kts | 297° |
| 2026-05-07 05:58 | -22.95830 | 144.92004 | 36080 ft | 397 kts | 296° |
| 2026-05-07 05:59 | -22.93195 | 144.86750 | 36077 ft | 397 kts | 297° |
| 2026-05-07 05:59 | -22.90535 | 144.81537 | 36080 ft | 397 kts | 297° |
| 2026-05-07 06:00 | -22.87851 | 144.76304 | 36080 ft | 397 kts | 297° |
| 2026-05-07 06:00 | -22.85158 | 144.71059 | 36086 ft | 397 kts | 297° |
| 2026-05-07 06:01 | -22.82470 | 144.65825 | 36085 ft | 397 kts | 297° |
| 2026-05-07 06:01 | -22.79777 | 144.60590 | 36077 ft | 397 kts | 297° |
| 2026-05-07 06:02 | -22.77084 | 144.55359 | 36076 ft | 397 kts | 297° |
| 2026-05-07 06:02 | -22.74407 | 144.50163 | 36081 ft | 397 kts | 297° |
| 2026-05-07 06:03 | -22.71714 | 144.44944 | 36086 ft | 397 kts | 297° |
| 2026-05-07 06:03 | -22.69012 | 144.39717 | 36086 ft | 397 kts | 297° |
| 2026-05-07 06:04 | -22.66312 | 144.34497 | 36083 ft | 397 kts | 297° |
| 2026-05-07 06:04 | -22.63628 | 144.29314 | 36080 ft | 397 kts | 297° |
| 2026-05-07 06:05 | -22.60927 | 144.24104 | 36062 ft | 397 kts | 297° |
| 2026-05-07 06:05 | -22.58224 | 144.18894 | 36061 ft | 397 kts | 297° |
| 2026-05-07 06:06 | -22.55537 | 144.13720 | 36069 ft | 397 kts | 297° |
| 2026-05-07 06:06 | -22.52873 | 144.08597 | 36069 ft | 398 kts | 297° |
| 2026-05-07 06:07 | -22.50161 | 144.03386 | 36067 ft | 398 kts | 297° |
| 2026-05-07 06:07 | -22.47439 | 143.98162 | 36068 ft | 398 kts | 297° |
| 2026-05-07 06:08 | -22.44714 | 143.92937 | 36070 ft | 399 kts | 297° |
| 2026-05-07 06:08 | -22.41993 | 143.87724 | 36071 ft | 399 kts | 297° |
| 2026-05-07 06:09 | -22.39268 | 143.82510 | 36070 ft | 398 kts | 297° |
| 2026-05-07 06:09 | -22.36539 | 143.77292 | 36069 ft | 398 kts | 297° |
| 2026-05-07 06:10 | -22.33811 | 143.72081 | 36065 ft | 398 kts | 298° |
| 2026-05-07 06:10 | -22.31104 | 143.66916 | 36067 ft | 399 kts | 298° |
| 2026-05-07 06:11 | -22.28371 | 143.61708 | 36060 ft | 399 kts | 298° |
| 2026-05-07 06:11 | -22.25632 | 143.56494 | 36062 ft | 399 kts | 298° |
| 2026-05-07 06:12 | -22.22893 | 143.51283 | 36061 ft | 399 kts | 298° |
| 2026-05-07 06:12 | -22.20151 | 143.46072 | 36058 ft | 399 kts | 298° |
| 2026-05-07 06:13 | -22.17404 | 143.40857 | 36062 ft | 400 kts | 298° |
| 2026-05-07 06:13 | -22.14659 | 143.35650 | 36062 ft | 400 kts | 298° |
| 2026-05-07 06:14 | -22.11910 | 143.30442 | 36061 ft | 400 kts | 298° |
| 2026-05-07 06:14 | -22.09153 | 143.25224 | 36057 ft | 399 kts | 298° |
| 2026-05-07 06:15 | -22.06398 | 143.20015 | 36057 ft | 400 kts | 298° |
| 2026-05-07 06:15 | -22.03638 | 143.14801 | 36057 ft | 400 kts | 298° |
| 2026-05-07 06:16 | -22.00877 | 143.09589 | 36055 ft | 401 kts | 298° |
| 2026-05-07 06:16 | -21.98113 | 143.04379 | 36065 ft | 401 kts | 298° |
| 2026-05-07 06:17 | -21.95361 | 142.99195 | 36070 ft | 401 kts | 298° |
| 2026-05-07 06:17 | -21.92590 | 142.93982 | 36070 ft | 401 kts | 298° |
| 2026-05-07 06:18 | -21.89813 | 142.88762 | 36067 ft | 401 kts | 298° |
| 2026-05-07 06:18 | -21.87041 | 142.83556 | 36065 ft | 401 kts | 298° |
| 2026-05-07 06:19 | -21.84269 | 142.78355 | 36062 ft | 400 kts | 298° |
| 2026-05-07 06:19 | -21.81492 | 142.73151 | 36063 ft | 401 kts | 298° |
| 2026-05-07 06:20 | -21.78714 | 142.67948 | 36063 ft | 400 kts | 298° |
| 2026-05-07 06:20 | -21.75938 | 142.62755 | 36062 ft | 400 kts | 298° |
| 2026-05-07 06:21 | -21.73178 | 142.57598 | 36060 ft | 400 kts | 298° |
| 2026-05-07 06:21 | -21.70402 | 142.52414 | 36060 ft | 400 kts | 298° |
| 2026-05-07 06:22 | -21.67622 | 142.47229 | 36059 ft | 400 kts | 298° |
| 2026-05-07 06:22 | -21.63443 | 142.39444 | 36059 ft | 400 kts | 298° |
| 2026-05-07 06:23 | -21.60658 | 142.34263 | 36059 ft | 400 kts | 298° |
| 2026-05-07 06:23 | -21.57874 | 142.29086 | 36042 ft | 400 kts | 298° |
| 2026-05-07 06:24 | -21.55090 | 142.23916 | 36053 ft | 400 kts | 298° |
| 2026-05-07 06:24 | -21.52298 | 142.18736 | 36054 ft | 400 kts | 298° |
| 2026-05-07 06:25 | -21.49512 | 142.13573 | 36055 ft | 400 kts | 298° |
| 2026-05-07 06:25 | -21.46717 | 142.08397 | 36054 ft | 401 kts | 298° |
| 2026-05-07 06:26 | -21.43939 | 142.03256 | 36047 ft | 401 kts | 298° |
| 2026-05-07 06:26 | -21.41140 | 141.98083 | 36051 ft | 401 kts | 298° |
| 2026-05-07 06:27 | -21.38337 | 141.92907 | 36053 ft | 401 kts | 298° |
| 2026-05-07 06:27 | -21.35529 | 141.87726 | 36052 ft | 401 kts | 298° |
| 2026-05-07 06:28 | -21.32718 | 141.82546 | 36053 ft | 402 kts | 298° |
| 2026-05-07 06:28 | -21.29911 | 141.77378 | 36050 ft | 402 kts | 299° |
| 2026-05-07 06:29 | -21.27098 | 141.72202 | 36046 ft | 402 kts | 299° |
| 2026-05-07 06:29 | -21.24283 | 141.67028 | 36046 ft | 402 kts | 299° |
| 2026-05-07 06:30 | -21.21470 | 141.61864 | 36052 ft | 402 kts | 299° |
| 2026-05-07 06:30 | -21.18648 | 141.56687 | 36049 ft | 402 kts | 299° |
| 2026-05-07 06:31 | -21.15828 | 141.51520 | 36047 ft | 402 kts | 299° |
| 2026-05-07 06:31 | -21.13011 | 141.46362 | 36047 ft | 402 kts | 299° |
| 2026-05-07 06:32 | -21.10186 | 141.41193 | 36047 ft | 401 kts | 299° |
| 2026-05-07 06:32 | -21.07362 | 141.36032 | 36047 ft | 401 kts | 299° |
| 2026-05-07 06:33 | -21.04605 | 141.30998 | 36035 ft | 401 kts | 299° |
| 2026-05-07 06:33 | -21.01776 | 141.25838 | 36038 ft | 402 kts | 299° |
| 2026-05-07 06:34 | -20.98942 | 141.20674 | 36041 ft | 402 kts | 299° |
| 2026-05-07 06:34 | -20.96105 | 141.15508 | 36039 ft | 403 kts | 299° |
| 2026-05-07 06:35 | -20.93266 | 141.10343 | 36050 ft | 403 kts | 299° |
| 2026-05-07 06:35 | -20.90419 | 141.05169 | 36050 ft | 403 kts | 299° |
| 2026-05-07 06:36 | -20.87580 | 141.00014 | 36049 ft | 403 kts | 299° |
| 2026-05-07 06:36 | -20.84735 | 140.94854 | 36047 ft | 403 kts | 299° |
| 2026-05-07 06:37 | -20.81907 | 140.89729 | 36046 ft | 402 kts | 299° |
| 2026-05-07 06:37 | -20.79047 | 140.84549 | 36045 ft | 402 kts | 299° |
| 2026-05-07 06:38 | -20.76224 | 140.79442 | 36044 ft | 402 kts | 299° |
| 2026-05-07 06:38 | -20.73381 | 140.74304 | 36040 ft | 402 kts | 299° |
| 2026-05-07 06:39 | -20.70539 | 140.69171 | 36043 ft | 402 kts | 299° |
| 2026-05-07 06:39 | -20.67692 | 140.64035 | 36042 ft | 402 kts | 299° |
| 2026-05-07 06:40 | -20.64841 | 140.58895 | 36037 ft | 402 kts | 299° |
| 2026-05-07 06:40 | -20.62471 | 140.54627 | 36038 ft | 402 kts | 299° |
| 2026-05-07 06:41 | -20.59615 | 140.49488 | 36041 ft | 402 kts | 299° |
| 2026-05-07 06:41 | -20.56758 | 140.44353 | 36043 ft | 403 kts | 299° |
| 2026-05-07 06:42 | -20.53900 | 140.39218 | 36038 ft | 402 kts | 299° |
| 2026-05-07 06:42 | -20.51040 | 140.34086 | 36040 ft | 403 kts | 300° |
| 2026-05-07 06:43 | -20.48174 | 140.28946 | 36043 ft | 403 kts | 300° |
| 2026-05-07 06:43 | -20.45308 | 140.23812 | 36040 ft | 403 kts | 300° |
| 2026-05-07 06:44 | -20.42436 | 140.18672 | 36036 ft | 403 kts | 300° |
| 2026-05-07 06:44 | -20.39562 | 140.13533 | 36040 ft | 403 kts | 300° |
| 2026-05-07 06:45 | -20.36722 | 140.08460 | 36043 ft | 404 kts | 300° |
| 2026-05-07 06:45 | -20.33844 | 140.03322 | 36042 ft | 403 kts | 300° |
| 2026-05-07 06:46 | -20.30966 | 139.98190 | 36043 ft | 403 kts | 300° |
| 2026-05-07 06:46 | -20.28084 | 139.93055 | 36038 ft | 404 kts | 300° |
| 2026-05-07 06:47 | -20.25211 | 139.87939 | 36036 ft | 404 kts | 300° |
| 2026-05-07 06:47 | -20.22324 | 139.82806 | 36036 ft | 404 kts | 300° |
| 2026-05-07 06:48 | -20.19441 | 139.77681 | 36039 ft | 404 kts | 300° |
| 2026-05-07 06:48 | -20.16549 | 139.72547 | 36037 ft | 404 kts | 300° |
| 2026-05-07 06:49 | -20.13656 | 139.67414 | 36039 ft | 404 kts | 300° |
| 2026-05-07 06:49 | -20.10760 | 139.62283 | 36041 ft | 404 kts | 300° |
| 2026-05-07 06:50 | -20.07863 | 139.57151 | 36042 ft | 404 kts | 300° |
| 2026-05-07 06:50 | -20.04966 | 139.52024 | 36027 ft | 404 kts | 300° |
| 2026-05-07 06:51 | -20.02067 | 139.46901 | 36028 ft | 404 kts | 300° |
| 2026-05-07 06:51 | -19.99164 | 139.41775 | 36031 ft | 405 kts | 300° |
| 2026-05-07 06:52 | -19.96256 | 139.36643 | 36036 ft | 405 kts | 300° |
| 2026-05-07 06:52 | -19.93363 | 139.31542 | 36035 ft | 405 kts | 300° |
| 2026-05-07 06:53 | -19.90452 | 139.26414 | 36033 ft | 406 kts | 300° |
| 2026-05-07 06:53 | -19.87530 | 139.21272 | 36029 ft | 406 kts | 300° |
| 2026-05-07 06:54 | -19.84618 | 139.16151 | 36022 ft | 405 kts | 300° |
| 2026-05-07 06:54 | -19.81699 | 139.11023 | 36028 ft | 405 kts | 300° |
| 2026-05-07 06:55 | -19.78787 | 139.05911 | 36023 ft | 405 kts | 300° |
| 2026-05-07 06:55 | -19.75864 | 139.00784 | 36022 ft | 405 kts | 300° |
| 2026-05-07 06:56 | -19.72940 | 138.95661 | 36025 ft | 406 kts | 300° |
| 2026-05-07 06:56 | -19.70018 | 138.90545 | 36026 ft | 406 kts | 300° |
| 2026-05-07 06:57 | -19.67094 | 138.85429 | 36025 ft | 406 kts | 300° |
| 2026-05-07 06:57 | -19.64160 | 138.80302 | 36020 ft | 406 kts | 300° |
| 2026-05-07 06:58 | -19.61224 | 138.75175 | 36022 ft | 406 kts | 300° |
| 2026-05-07 06:58 | -19.58295 | 138.70064 | 36019 ft | 406 kts | 300° |
| 2026-05-07 06:59 | -19.55356 | 138.64939 | 36014 ft | 406 kts | 300° |
| 2026-05-07 06:59 | -19.52425 | 138.59835 | 36011 ft | 407 kts | 300° |
| 2026-05-07 07:00 | -19.49479 | 138.54708 | 36017 ft | 407 kts | 300° |
| 2026-05-07 07:00 | -19.46551 | 138.49615 | 36013 ft | 407 kts | 300° |
| 2026-05-07 07:01 | -19.43597 | 138.44483 | 36023 ft | 408 kts | 300° |
| 2026-05-07 07:01 | -19.40642 | 138.39355 | 36023 ft | 408 kts | 300° |
| 2026-05-07 07:02 | -19.37679 | 138.34215 | 36025 ft | 408 kts | 300° |
| 2026-05-07 07:02 | -19.34717 | 138.29083 | 36027 ft | 408 kts | 300° |
| 2026-05-07 07:03 | -19.31756 | 138.23954 | 36021 ft | 408 kts | 300° |
| 2026-05-07 07:03 | -19.28785 | 138.18816 | 36023 ft | 409 kts | 300° |
| 2026-05-07 07:04 | -19.25820 | 138.13690 | 36017 ft | 409 kts | 300° |
| 2026-05-07 07:04 | -19.22872 | 138.08597 | 36021 ft | 409 kts | 300° |
| 2026-05-07 07:05 | -19.19899 | 138.03467 | 36014 ft | 409 kts | 300° |
| 2026-05-07 07:05 | -19.16923 | 137.98337 | 36016 ft | 409 kts | 300° |
| 2026-05-07 07:06 | -19.13949 | 137.93212 | 36020 ft | 409 kts | 300° |
| 2026-05-07 07:06 | -19.10977 | 137.88097 | 36010 ft | 409 kts | 300° |
| 2026-05-07 07:07 | -19.07997 | 137.82972 | 36018 ft | 409 kts | 300° |
| 2026-05-07 07:07 | -19.05018 | 137.77852 | 35994 ft | 409 kts | 300° |
| 2026-05-07 07:08 | -19.02040 | 137.72739 | 36001 ft | 410 kts | 300° |
| 2026-05-07 07:08 | -18.99051 | 137.67610 | 36007 ft | 410 kts | 300° |
| 2026-05-07 07:09 | -18.96055 | 137.62475 | 36014 ft | 411 kts | 300° |
| 2026-05-07 07:09 | -18.93048 | 137.57325 | 36010 ft | 412 kts | 300° |
| 2026-05-07 07:10 | -18.90041 | 137.52178 | 36017 ft | 413 kts | 300° |
| 2026-05-07 07:10 | -18.87027 | 137.47024 | 36024 ft | 413 kts | 300° |
| 2026-05-07 07:11 | -18.84021 | 137.41890 | 36022 ft | 413 kts | 300° |
| 2026-05-07 07:11 | -18.80979 | 137.36697 | 36019 ft | 413 kts | 300° |
| 2026-05-07 07:12 | -18.77958 | 137.31544 | 36018 ft | 413 kts | 300° |
| 2026-05-07 07:12 | -18.74933 | 137.26389 | 36017 ft | 413 kts | 300° |
| 2026-05-07 07:13 | -18.71928 | 137.21272 | 36017 ft | 413 kts | 300° |
| 2026-05-07 07:13 | -18.68905 | 137.16129 | 36010 ft | 413 kts | 300° |
| 2026-05-07 07:14 | -18.65882 | 137.10989 | 36011 ft | 413 kts | 300° |
| 2026-05-07 07:14 | -18.62852 | 137.05842 | 36009 ft | 413 kts | 300° |
| 2026-05-07 07:15 | -18.59822 | 137.00699 | 36012 ft | 413 kts | 300° |
| 2026-05-07 07:15 | -18.56792 | 136.95560 | 36011 ft | 413 kts | 300° |
| 2026-05-07 07:16 | -18.53762 | 136.90426 | 36010 ft | 413 kts | 300° |
| 2026-05-07 07:16 | -18.50730 | 136.85292 | 36006 ft | 413 kts | 300° |
| 2026-05-07 07:17 | -18.47697 | 136.80162 | 36004 ft | 413 kts | 300° |
| 2026-05-07 07:17 | -18.44662 | 136.75030 | 36005 ft | 413 kts | 300° |
| 2026-05-07 07:18 | -18.41622 | 136.69897 | 36007 ft | 413 kts | 300° |
| 2026-05-07 07:18 | -18.38583 | 136.64768 | 36000 ft | 413 kts | 300° |
| 2026-05-07 07:19 | -18.35541 | 136.59638 | 36001 ft | 413 kts | 300° |
| 2026-05-07 07:19 | -18.32496 | 136.54506 | 36262 ft | 414 kts | 300° |
| 2026-05-07 07:20 | -18.30973 | 136.51943 | 36742 ft | 412 kts | 300° |
| 2026-05-07 07:20 | -18.29461 | 136.49399 | 37211 ft | 409 kts | 300° |
| 2026-05-07 07:20 | -18.27956 | 136.46867 | 37666 ft | 407 kts | 300° |
| 2026-05-07 07:20 | -18.26454 | 136.44340 | 37963 ft | 408 kts | 300° |
| 2026-05-07 07:21 | -18.23466 | 136.39318 | 38001 ft | 401 kts | 300° |
| 2026-05-07 07:21 | -18.20498 | 136.34328 | 38001 ft | 403 kts | 300° |
| 2026-05-07 07:22 | -18.17520 | 136.29327 | 38001 ft | 403 kts | 300° |
| 2026-05-07 07:22 | -18.14562 | 136.24364 | 38001 ft | 403 kts | 300° |
| 2026-05-07 07:23 | -18.11586 | 136.19374 | 37967 ft | 403 kts | 300° |
| 2026-05-07 07:23 | -18.08604 | 136.14378 | 37993 ft | 403 kts | 300° |
| 2026-05-07 07:24 | -18.05623 | 136.09386 | 37995 ft | 403 kts | 300° |
| 2026-05-07 07:24 | -18.02635 | 136.04387 | 37991 ft | 404 kts | 300° |
| 2026-05-07 07:25 | -17.98277 | 135.96816 | 38007 ft | 404 kts | 296° |
| 2026-05-07 07:26 | -17.95808 | 135.91521 | 38005 ft | 404 kts | 295° |
| 2026-05-07 07:26 | -17.93306 | 135.86234 | 38009 ft | 404 kts | 295° |
| 2026-05-07 07:27 | -17.90762 | 135.80976 | 38005 ft | 404 kts | 296° |
| 2026-05-07 07:27 | -17.88206 | 135.75720 | 37999 ft | 404 kts | 296° |
| 2026-05-07 07:28 | -17.85647 | 135.70465 | 38002 ft | 404 kts | 296° |
| 2026-05-07 07:28 | -17.83094 | 135.65226 | 38003 ft | 404 kts | 296° |
| 2026-05-07 07:29 | -17.80537 | 135.59981 | 38001 ft | 403 kts | 296° |
| 2026-05-07 07:29 | -17.77996 | 135.54775 | 38001 ft | 403 kts | 296° |
| 2026-05-07 07:30 | -17.75852 | 135.50385 | 38007 ft | 403 kts | 296° |
| 2026-05-07 07:30 | -17.73295 | 135.45154 | 38006 ft | 403 kts | 296° |
| 2026-05-07 07:31 | -17.70732 | 135.39915 | 38009 ft | 403 kts | 296° |
| 2026-05-07 07:31 | -17.68171 | 135.34685 | 37999 ft | 403 kts | 296° |
| 2026-05-07 07:32 | -17.65610 | 135.29457 | 38001 ft | 403 kts | 296° |
| 2026-05-07 07:32 | -17.63042 | 135.24221 | 38000 ft | 404 kts | 296° |
| 2026-05-07 07:33 | -17.60474 | 135.18989 | 38003 ft | 404 kts | 296° |
| 2026-05-07 07:33 | -17.57920 | 135.13790 | 38006 ft | 404 kts | 296° |
| 2026-05-07 07:34 | -17.55346 | 135.08555 | 38005 ft | 404 kts | 296° |
| 2026-05-07 07:34 | -17.52770 | 135.03318 | 37994 ft | 404 kts | 296° |
| 2026-05-07 07:35 | -17.50194 | 134.98087 | 38004 ft | 405 kts | 296° |
| 2026-05-07 07:35 | -17.47608 | 134.92839 | 38007 ft | 405 kts | 296° |
| 2026-05-07 07:36 | -17.45001 | 134.87554 | 38007 ft | 406 kts | 296° |
| 2026-05-07 07:36 | -17.42425 | 134.82336 | 38009 ft | 406 kts | 296° |
| 2026-05-07 07:37 | -17.39831 | 134.77084 | 38013 ft | 406 kts | 296° |
| 2026-05-07 07:37 | -17.37237 | 134.71839 | 38014 ft | 406 kts | 296° |
| 2026-05-07 07:38 | -17.34637 | 134.66584 | 37988 ft | 406 kts | 296° |
| 2026-05-07 07:38 | -17.32040 | 134.61339 | 38012 ft | 406 kts | 296° |
| 2026-05-07 07:39 | -17.29434 | 134.56081 | 38006 ft | 407 kts | 296° |
| 2026-05-07 07:39 | -17.26863 | 134.50898 | 38011 ft | 407 kts | 296° |
| 2026-05-07 07:40 | -17.24254 | 134.45643 | 38014 ft | 407 kts | 296° |
| 2026-05-07 07:40 | -17.21646 | 134.40394 | 38006 ft | 407 kts | 296° |
| 2026-05-07 07:41 | -17.19031 | 134.35135 | 37989 ft | 407 kts | 296° |
| 2026-05-07 07:41 | -17.16417 | 134.29881 | 38011 ft | 408 kts | 296° |
| 2026-05-07 07:42 | -17.13795 | 134.24617 | 38017 ft | 408 kts | 296° |
| 2026-05-07 07:42 | -17.11186 | 134.19381 | 38026 ft | 408 kts | 296° |
| 2026-05-07 07:43 | -17.08563 | 134.14123 | 38020 ft | 408 kts | 296° |
| 2026-05-07 07:43 | -17.05935 | 134.08859 | 37999 ft | 409 kts | 296° |
| 2026-05-07 07:44 | -17.03307 | 134.03599 | 37998 ft | 409 kts | 296° |
| 2026-05-07 07:44 | -17.00675 | 133.98335 | 38002 ft | 409 kts | 296° |
| 2026-05-07 07:45 | -16.98038 | 133.93065 | 38008 ft | 409 kts | 296° |
| 2026-05-07 07:45 | -16.95399 | 133.87796 | 38004 ft | 410 kts | 296° |
| 2026-05-07 07:46 | -16.92757 | 133.82524 | 38006 ft | 410 kts | 296° |
| 2026-05-07 07:46 | -16.90109 | 133.77246 | 38009 ft | 410 kts | 296° |
| 2026-05-07 07:47 | -16.87456 | 133.71961 | 37987 ft | 410 kts | 296° |
| 2026-05-07 07:47 | -16.84803 | 133.66680 | 37992 ft | 411 kts | 296° |
| 2026-05-07 07:48 | -16.82146 | 133.61396 | 38010 ft | 411 kts | 296° |
| 2026-05-07 07:48 | -16.79483 | 133.56104 | 38004 ft | 412 kts | 296° |
| 2026-05-07 07:49 | -16.76837 | 133.50849 | 38010 ft | 412 kts | 296° |
| 2026-05-07 07:49 | -16.74166 | 133.45549 | 38012 ft | 412 kts | 296° |
| 2026-05-07 07:50 | -16.71480 | 133.40225 | 37967 ft | 413 kts | 295° |
| 2026-05-07 07:50 | -16.68824 | 133.34963 | 37993 ft | 412 kts | 295° |
| 2026-05-07 07:51 | -16.66151 | 133.29671 | 37999 ft | 413 kts | 296° |
| 2026-05-07 07:51 | -16.63517 | 133.24461 | 37997 ft | 413 kts | 296° |
| 2026-05-07 07:52 | -16.60836 | 133.19163 | 38005 ft | 413 kts | 295° |
| 2026-05-07 07:52 | -16.58152 | 133.13861 | 38004 ft | 414 kts | 295° |
| 2026-05-07 07:53 | -16.55464 | 133.08557 | 38003 ft | 414 kts | 296° |
| 2026-05-07 07:53 | -16.52774 | 133.03254 | 37988 ft | 414 kts | 295° |
| 2026-05-07 07:54 | -16.50080 | 132.97944 | 37993 ft | 414 kts | 295° |
| 2026-05-07 07:54 | -16.47385 | 132.92639 | 37998 ft | 415 kts | 295° |
| 2026-05-07 07:55 | -16.44682 | 132.87321 | 38001 ft | 415 kts | 295° |
| 2026-05-07 07:55 | -16.41981 | 132.82011 | 37999 ft | 415 kts | 295° |
| 2026-05-07 07:56 | -16.39273 | 132.76692 | 38004 ft | 416 kts | 295° |
| 2026-05-07 07:56 | -16.36562 | 132.71372 | 37968 ft | 416 kts | 295° |
| 2026-05-07 07:57 | -16.33853 | 132.66060 | 37985 ft | 416 kts | 295° |
| 2026-05-07 07:57 | -16.31136 | 132.60735 | 37996 ft | 417 kts | 295° |
| 2026-05-07 07:58 | -16.28430 | 132.55435 | 37996 ft | 417 kts | 295° |
| 2026-05-07 07:58 | -16.25700 | 132.50094 | 38002 ft | 418 kts | 295° |
| 2026-05-07 07:59 | -16.22954 | 132.44725 | 38004 ft | 418 kts | 295° |
| 2026-05-07 07:59 | -16.20274 | 132.39489 | 38004 ft | 418 kts | 295° |
| 2026-05-07 08:00 | -16.17539 | 132.34150 | 37997 ft | 418 kts | 295° |
| 2026-05-07 08:00 | -16.14803 | 132.28813 | 37998 ft | 418 kts | 295° |
| 2026-05-07 08:01 | -16.12072 | 132.23490 | 37999 ft | 418 kts | 295° |
| 2026-05-07 08:01 | -16.09328 | 132.18146 | 37990 ft | 419 kts | 295° |
| 2026-05-07 08:02 | -16.06580 | 132.12794 | 37982 ft | 420 kts | 295° |
| 2026-05-07 08:02 | -16.03829 | 132.07439 | 37988 ft | 420 kts | 295° |
| 2026-05-07 08:03 | -16.01072 | 132.02078 | 37980 ft | 420 kts | 295° |
| 2026-05-07 08:03 | -15.98348 | 131.96703 | 37979 ft | 420 kts | 294° |
| 2026-05-07 08:04 | -15.95727 | 131.91272 | 37988 ft | 421 kts | 294° |
| 2026-05-07 08:04 | -15.93128 | 131.85902 | 37992 ft | 422 kts | 294° |
| 2026-05-07 08:05 | -15.90481 | 131.80465 | 37994 ft | 422 kts | 294° |
| 2026-05-07 08:05 | -15.87867 | 131.75108 | 37985 ft | 423 kts | 293° |
| 2026-05-07 08:06 | -15.85207 | 131.69658 | 37988 ft | 423 kts | 293° |
| 2026-05-07 08:06 | -15.82541 | 131.64202 | 37971 ft | 423 kts | 294° |
| 2026-05-07 08:07 | -15.79879 | 131.58760 | 37970 ft | 423 kts | 294° |
| 2026-05-07 08:07 | -15.77212 | 131.53313 | 37980 ft | 424 kts | 293° |
| 2026-05-07 08:08 | -15.74533 | 131.47842 | 37978 ft | 424 kts | 293° |
| 2026-05-07 08:08 | -15.71859 | 131.42386 | 37972 ft | 425 kts | 293° |
| 2026-05-07 08:09 | -15.69179 | 131.36923 | 37970 ft | 425 kts | 293° |
| 2026-05-07 08:09 | -15.66488 | 131.31444 | 37977 ft | 426 kts | 293° |
| 2026-05-07 08:10 | -15.63805 | 131.25981 | 37979 ft | 426 kts | 293° |
| 2026-05-07 08:10 | -15.61110 | 131.20503 | 37982 ft | 426 kts | 293° |
| 2026-05-07 08:11 | -15.58417 | 131.15029 | 37977 ft | 426 kts | 293° |
| 2026-05-07 08:11 | -15.55735 | 131.09585 | 37990 ft | 427 kts | 292° |
| 2026-05-07 08:12 | -15.53029 | 131.04094 | 37987 ft | 428 kts | 292° |
| 2026-05-07 08:12 | -15.50302 | 130.98564 | 37968 ft | 428 kts | 292° |
| 2026-05-07 08:13 | -15.47592 | 130.93072 | 37944 ft | 427 kts | 293° |
| 2026-05-07 08:13 | -15.44899 | 130.87624 | 37971 ft | 428 kts | 292° |
| 2026-05-07 08:14 | -15.42185 | 130.82132 | 37967 ft | 428 kts | 292° |
| 2026-05-07 08:14 | -15.39465 | 130.76633 | 37966 ft | 428 kts | 292° |
| 2026-05-07 08:15 | -15.36746 | 130.71141 | 37970 ft | 429 kts | 292° |
| 2026-05-07 08:15 | -15.34024 | 130.65649 | 37977 ft | 429 kts | 292° |
| 2026-05-07 08:16 | -15.31298 | 130.60150 | 37976 ft | 429 kts | 292° |
| 2026-05-07 08:16 | -15.28565 | 130.54642 | 37956 ft | 429 kts | 293° |
| 2026-05-07 08:17 | -15.25832 | 130.49140 | 37971 ft | 429 kts | 293° |
| 2026-05-07 08:17 | -15.23104 | 130.43654 | 37964 ft | 430 kts | 292° |
| 2026-05-07 08:18 | -15.20380 | 130.38175 | 37968 ft | 430 kts | 292° |
| 2026-05-07 08:18 | -15.17620 | 130.32628 | 37971 ft | 431 kts | 292° |
| 2026-05-07 08:19 | -15.15339 | 130.28049 | 37971 ft | 431 kts | 292° |
| 2026-05-07 08:19 | -15.12589 | 130.22533 | 37971 ft | 431 kts | 292° |
| 2026-05-07 08:20 | -15.09398 | 130.16133 | 37963 ft | 431 kts | 292° |
| 2026-05-07 08:20 | -15.07086 | 130.11501 | 37963 ft | 432 kts | 292° |
| 2026-05-07 08:21 | -15.04325 | 130.05973 | 37965 ft | 433 kts | 292° |
| 2026-05-07 08:21 | -15.01553 | 130.00431 | 37963 ft | 433 kts | 292° |
| 2026-05-07 08:22 | -14.98807 | 129.94941 | 37959 ft | 433 kts | 292° |
| 2026-05-07 08:22 | -14.96038 | 129.89411 | 37959 ft | 433 kts | 292° |
| 2026-05-07 08:23 | -14.93262 | 129.83868 | 37961 ft | 434 kts | 292° |
| 2026-05-07 08:23 | -14.90487 | 129.78332 | 37920 ft | 434 kts | 292° |
| 2026-05-07 08:24 | -14.87703 | 129.72785 | 37940 ft | 436 kts | 293° |
| 2026-05-07 08:24 | -14.84909 | 129.67220 | 37952 ft | 437 kts | 293° |
| 2026-05-07 08:25 | -14.82107 | 129.61645 | 37957 ft | 438 kts | 293° |
| 2026-05-07 08:25 | -14.79295 | 129.56052 | 37963 ft | 438 kts | 292° |
| 2026-05-07 08:26 | -14.75074 | 129.47666 | 37966 ft | 439 kts | 292° |
| 2026-05-07 08:26 | -14.72251 | 129.42061 | 37968 ft | 439 kts | 292° |
| 2026-05-07 08:27 | -14.69438 | 129.36481 | 37949 ft | 440 kts | 293° |
| 2026-05-07 08:27 | -14.66608 | 129.30873 | 37947 ft | 441 kts | 293° |
| 2026-05-07 08:28 | -14.63774 | 129.25260 | 37956 ft | 441 kts | 293° |
| 2026-05-07 08:28 | -14.60930 | 129.19630 | 37962 ft | 442 kts | 293° |
| 2026-05-07 08:29 | -14.58102 | 129.14039 | 37965 ft | 442 kts | 293° |
| 2026-05-07 08:29 | -14.55234 | 129.08371 | 37968 ft | 443 kts | 293° |
| 2026-05-07 08:30 | -14.52403 | 129.02780 | 37969 ft | 443 kts | 293° |
| 2026-05-07 08:30 | -14.49551 | 128.97149 | 37937 ft | 443 kts | 294° |
| 2026-05-07 08:31 | -14.46690 | 128.91508 | 37944 ft | 444 kts | 294° |
| 2026-05-07 08:31 | -14.43815 | 128.85843 | 37949 ft | 446 kts | 294° |
| 2026-05-07 08:32 | -14.40938 | 128.80179 | 37961 ft | 447 kts | 294° |
| 2026-05-07 08:32 | -14.38052 | 128.74499 | 37967 ft | 448 kts | 294° |
| 2026-05-07 08:33 | -14.35159 | 128.68812 | 37970 ft | 448 kts | 294° |
| 2026-05-07 08:33 | -14.32262 | 128.63121 | 37976 ft | 448 kts | 293° |
| 2026-05-07 08:34 | -14.29363 | 128.57427 | 37975 ft | 448 kts | 293° |
| 2026-05-07 08:34 | -14.26468 | 128.51747 | 37971 ft | 448 kts | 293° |
| 2026-05-07 08:35 | -14.23566 | 128.46058 | 37965 ft | 447 kts | 293° |
| 2026-05-07 08:35 | -14.20674 | 128.40392 | 37962 ft | 447 kts | 293° |
| 2026-05-07 08:36 | -14.17779 | 128.34725 | 37958 ft | 446 kts | 293° |
| 2026-05-07 08:36 | -14.14888 | 128.29069 | 37955 ft | 446 kts | 293° |
| 2026-05-07 08:37 | -14.11993 | 128.23410 | 37953 ft | 446 kts | 293° |
| 2026-05-07 08:37 | -14.09100 | 128.17757 | 37933 ft | 447 kts | 294° |
| 2026-05-07 08:38 | -14.06202 | 128.12098 | 37939 ft | 448 kts | 294° |
| 2026-05-07 08:38 | -14.03293 | 128.06420 | 37949 ft | 449 kts | 294° |
| 2026-05-07 08:39 | -14.00386 | 128.00765 | 37958 ft | 450 kts | 295° |
| 2026-05-07 08:39 | -13.97087 | 127.95257 | 37965 ft | 453 kts | 298° |
| 2026-05-07 08:40 | -13.93727 | 127.89766 | 37967 ft | 454 kts | 297° |
| 2026-05-07 08:40 | -13.90365 | 127.84259 | 37972 ft | 454 kts | 297° |
| 2026-05-07 08:41 | -13.86996 | 127.78751 | 37964 ft | 455 kts | 298° |
| 2026-05-07 08:41 | -13.83617 | 127.73235 | 37964 ft | 455 kts | 298° |
| 2026-05-07 08:42 | -13.80238 | 127.67724 | 37963 ft | 456 kts | 298° |
| 2026-05-07 08:42 | -13.76855 | 127.62210 | 37965 ft | 456 kts | 298° |
| 2026-05-07 08:43 | -13.73465 | 127.56689 | 37962 ft | 456 kts | 298° |
| 2026-05-07 08:43 | -13.70078 | 127.51176 | 37962 ft | 456 kts | 298° |
| 2026-05-07 08:44 | -13.66707 | 127.45691 | 37946 ft | 456 kts | 298° |
| 2026-05-07 08:44 | -13.63292 | 127.40139 | 37953 ft | 457 kts | 298° |
| 2026-05-07 08:45 | -13.59913 | 127.34650 | 37956 ft | 457 kts | 298° |
| 2026-05-07 08:45 | -13.56508 | 127.29122 | 37961 ft | 458 kts | 298° |
| 2026-05-07 08:46 | -13.53094 | 127.23583 | 37961 ft | 458 kts | 298° |
| 2026-05-07 08:46 | -13.49684 | 127.18053 | 37956 ft | 459 kts | 298° |
| 2026-05-07 08:47 | -13.46261 | 127.12506 | 37958 ft | 459 kts | 298° |
| 2026-05-07 08:47 | -13.42841 | 127.06965 | 37952 ft | 460 kts | 298° |
| 2026-05-07 08:48 | -13.39414 | 127.01421 | 37955 ft | 460 kts | 298° |
| 2026-05-07 08:48 | -13.35981 | 126.95869 | 37956 ft | 461 kts | 298° |
| 2026-05-07 08:49 | -13.32543 | 126.90312 | 37954 ft | 461 kts | 298° |
| 2026-05-07 08:49 | -13.29107 | 126.84761 | 37949 ft | 461 kts | 298° |
| 2026-05-07 08:50 | -13.25667 | 126.79209 | 37947 ft | 461 kts | 298° |
| 2026-05-07 08:50 | -13.22223 | 126.73652 | 37922 ft | 461 kts | 299° |
| 2026-05-07 08:51 | -13.18780 | 126.68101 | 37953 ft | 461 kts | 299° |
| 2026-05-07 08:51 | -13.15334 | 126.62549 | 37954 ft | 462 kts | 299° |
| 2026-05-07 08:52 | -13.11878 | 126.56984 | 37959 ft | 462 kts | 299° |
| 2026-05-07 08:52 | -13.08420 | 126.51419 | 37957 ft | 463 kts | 299° |
| 2026-05-07 08:53 | -13.04961 | 126.45857 | 37939 ft | 463 kts | 299° |
| 2026-05-07 08:53 | -13.01494 | 126.40284 | 37958 ft | 463 kts | 299° |
| 2026-05-07 08:54 | -12.98024 | 126.34710 | 37955 ft | 464 kts | 299° |
| 2026-05-07 08:54 | -12.94575 | 126.29173 | 37949 ft | 464 kts | 299° |
| 2026-05-07 08:55 | -12.91093 | 126.23589 | 37948 ft | 465 kts | 299° |
| 2026-05-07 08:55 | -12.87613 | 126.18009 | 37944 ft | 465 kts | 299° |
| 2026-05-07 08:56 | -12.84125 | 126.12421 | 37952 ft | 465 kts | 299° |
| 2026-05-07 08:56 | -12.80640 | 126.06840 | 37953 ft | 466 kts | 299° |
| 2026-05-07 08:57 | -12.77147 | 126.01251 | 37957 ft | 466 kts | 299° |
| 2026-05-07 08:57 | -12.73651 | 125.95659 | 37939 ft | 466 kts | 300° |
| 2026-05-07 08:58 | -12.70158 | 125.90076 | 37942 ft | 466 kts | 300° |
| 2026-05-07 08:58 | -12.66662 | 125.84492 | 37939 ft | 466 kts | 300° |
| 2026-05-07 08:59 | -12.63151 | 125.78887 | 37948 ft | 467 kts | 300° |
| 2026-05-07 08:59 | -12.59649 | 125.73301 | 37948 ft | 467 kts | 300° |
| 2026-05-07 09:00 | -12.56138 | 125.67702 | 37948 ft | 467 kts | 300° |
| 2026-05-07 09:00 | -12.52637 | 125.62125 | 37935 ft | 467 kts | 300° |
| 2026-05-07 09:01 | -12.49123 | 125.56527 | 37940 ft | 467 kts | 300° |
| 2026-05-07 09:01 | -12.45601 | 125.50922 | 37933 ft | 468 kts | 300° |
| 2026-05-07 09:02 | -12.42082 | 125.45324 | 37935 ft | 468 kts | 300° |
| 2026-05-07 09:02 | -12.38554 | 125.39717 | 37939 ft | 469 kts | 300° |
| 2026-05-07 09:03 | -12.35046 | 125.34144 | 37940 ft | 469 kts | 300° |
| 2026-05-07 09:03 | -12.31513 | 125.28534 | 37940 ft | 469 kts | 300° |
| 2026-05-07 09:04 | -12.27976 | 125.22922 | 37928 ft | 469 kts | 300° |
| 2026-05-07 09:04 | -12.24439 | 125.17313 | 37934 ft | 469 kts | 300° |
| 2026-05-07 09:05 | -12.20902 | 125.11706 | 37933 ft | 470 kts | 300° |
| 2026-05-07 09:05 | -12.17359 | 125.06094 | 37936 ft | 470 kts | 300° |
| 2026-05-07 09:06 | -12.13812 | 125.00478 | 37938 ft | 470 kts | 300° |
| 2026-05-07 09:06 | -12.10267 | 124.94871 | 37935 ft | 470 kts | 300° |
| 2026-05-07 09:07 | -12.06716 | 124.89255 | 37931 ft | 470 kts | 300° |
| 2026-05-07 09:07 | -12.03163 | 124.83641 | 37929 ft | 471 kts | 300° |
| 2026-05-07 09:08 | -12.00209 | 124.78975 | 37931 ft | 471 kts | 300° |
| 2026-05-07 09:08 | -11.96059 | 124.72423 | 37931 ft | 471 kts | 300° |
| 2026-05-07 09:09 | -11.93100 | 124.67755 | 37928 ft | 471 kts | 300° |
| 2026-05-07 09:09 | -11.89536 | 124.62136 | 37928 ft | 471 kts | 300° |
| 2026-05-07 09:10 | -11.85976 | 124.56526 | 37925 ft | 471 kts | 300° |
| 2026-05-07 09:10 | -11.82419 | 124.50923 | 37924 ft | 471 kts | 300° |
| 2026-05-07 09:11 | -11.78851 | 124.45307 | 37910 ft | 471 kts | 300° |
| 2026-05-07 09:11 | -11.75289 | 124.39702 | 37918 ft | 471 kts | 300° |
| 2026-05-07 09:12 | -11.71726 | 124.34099 | 37919 ft | 471 kts | 300° |
| 2026-05-07 09:12 | -11.68156 | 124.28490 | 37919 ft | 471 kts | 300° |
| 2026-05-07 09:13 | -11.64584 | 124.22879 | 37921 ft | 472 kts | 300° |
| 2026-05-07 09:13 | -11.61004 | 124.17261 | 37918 ft | 472 kts | 300° |
| 2026-05-07 09:14 | -11.57449 | 124.11682 | 37918 ft | 472 kts | 300° |
| 2026-05-07 09:14 | -11.53848 | 124.06033 | 37917 ft | 472 kts | 301° |
| 2026-05-07 09:15 | -11.50298 | 124.00466 | 37921 ft | 471 kts | 300° |
| 2026-05-07 09:15 | -11.47073 | 123.94674 | 37918 ft | 470 kts | 296° |
| 2026-05-07 09:16 | -11.43902 | 123.88839 | 37909 ft | 470 kts | 297° |
| 2026-05-07 09:16 | -11.40727 | 123.83017 | 37909 ft | 470 kts | 297° |
| 2026-05-07 09:17 | -11.37553 | 123.77203 | 37907 ft | 470 kts | 297° |
| 2026-05-07 09:17 | -11.34370 | 123.71376 | 37907 ft | 470 kts | 297° |
| 2026-05-07 09:18 | -11.31184 | 123.65548 | 37906 ft | 470 kts | 297° |
| 2026-05-07 09:18 | -11.28000 | 123.59728 | 37906 ft | 470 kts | 297° |
| 2026-05-07 09:19 | -11.24820 | 123.53922 | 37908 ft | 471 kts | 297° |
| 2026-05-07 09:19 | -11.21628 | 123.48095 | 37909 ft | 471 kts | 297° |
| 2026-05-07 09:20 | -11.18434 | 123.42268 | 37907 ft | 471 kts | 297° |
| 2026-05-07 09:20 | -11.15240 | 123.36443 | 37909 ft | 471 kts | 297° |
| 2026-05-07 09:21 | -11.12048 | 123.30626 | 37908 ft | 471 kts | 297° |
| 2026-05-07 09:21 | -11.08871 | 123.24839 | 37904 ft | 471 kts | 297° |
| 2026-05-07 09:22 | -11.05678 | 123.19028 | 37905 ft | 471 kts | 297° |
| 2026-05-07 09:22 | -11.02481 | 123.13210 | 37894 ft | 471 kts | 297° |
| 2026-05-07 09:23 | -10.99283 | 123.07395 | 37896 ft | 471 kts | 297° |
| 2026-05-07 09:23 | -10.96076 | 123.01568 | 37898 ft | 472 kts | 297° |
| 2026-05-07 09:24 | -10.92868 | 122.95741 | 37900 ft | 472 kts | 297° |
| 2026-05-07 09:24 | -10.89658 | 122.89914 | 37899 ft | 473 kts | 297° |
| 2026-05-07 09:25 | -10.86439 | 122.84075 | 37892 ft | 473 kts | 297° |
| 2026-05-07 09:25 | -10.83218 | 122.78235 | 37886 ft | 473 kts | 297° |
| 2026-05-07 09:26 | -10.80002 | 122.72408 | 37890 ft | 473 kts | 297° |
| 2026-05-07 09:26 | -10.76778 | 122.66568 | 37882 ft | 473 kts | 297° |
| 2026-05-07 09:27 | -10.73558 | 122.60739 | 37898 ft | 473 kts | 297° |
| 2026-05-07 09:28 | -10.68717 | 122.51980 | 37903 ft | 473 kts | 297° |
| 2026-05-07 09:28 | -10.65491 | 122.46151 | 37903 ft | 473 kts | 297° |
| 2026-05-07 09:29 | -10.62264 | 122.40319 | 37898 ft | 474 kts | 297° |
| 2026-05-07 09:29 | -10.59026 | 122.34473 | 37882 ft | 474 kts | 297° |
| 2026-05-07 09:30 | -10.55801 | 122.28652 | 37879 ft | 474 kts | 297° |
| 2026-05-07 09:30 | -10.52595 | 122.22870 | 37868 ft | 474 kts | 297° |
| 2026-05-07 09:31 | -10.49360 | 122.17037 | 37875 ft | 474 kts | 297° |
| 2026-05-07 09:31 | -10.46121 | 122.11201 | 37878 ft | 474 kts | 297° |
| 2026-05-07 09:32 | -10.42900 | 122.05400 | 37898 ft | 475 kts | 297° |
| 2026-05-07 09:32 | -10.39655 | 121.99561 | 37892 ft | 475 kts | 297° |
| 2026-05-07 09:33 | -10.36402 | 121.93708 | 37892 ft | 475 kts | 297° |
| 2026-05-07 09:33 | -10.33156 | 121.87873 | 37893 ft | 475 kts | 297° |
| 2026-05-07 09:34 | -10.29904 | 121.82028 | 37887 ft | 475 kts | 297° |
| 2026-05-07 09:34 | -10.26687 | 121.76251 | 37858 ft | 475 kts | 297° |
| 2026-05-07 09:35 | -10.23434 | 121.70410 | 37862 ft | 476 kts | 297° |
| 2026-05-07 09:35 | -10.20176 | 121.64565 | 37884 ft | 476 kts | 297° |
| 2026-05-07 09:36 | -10.16913 | 121.58714 | 37885 ft | 477 kts | 297° |
| 2026-05-07 09:36 | -10.13642 | 121.52851 | 37892 ft | 477 kts | 297° |
| 2026-05-07 09:37 | -10.10392 | 121.47028 | 37894 ft | 477 kts | 298° |
| 2026-05-07 09:37 | -10.07120 | 121.41171 | 37893 ft | 477 kts | 298° |
| 2026-05-07 09:38 | -10.03851 | 121.35321 | 37889 ft | 477 kts | 298° |
| 2026-05-07 09:38 | -10.00576 | 121.29463 | 37855 ft | 477 kts | 298° |
| 2026-05-07 09:39 | -9.97301 | 121.23608 | 37879 ft | 478 kts | 298° |
| 2026-05-07 09:39 | -9.94020 | 121.17745 | 37879 ft | 479 kts | 298° |
| 2026-05-07 09:40 | -9.90725 | 121.11861 | 37884 ft | 479 kts | 298° |
| 2026-05-07 09:40 | -9.87434 | 121.05988 | 37892 ft | 480 kts | 298° |
| 2026-05-07 09:41 | -9.84138 | 121.00106 | 37887 ft | 480 kts | 298° |
| 2026-05-07 09:41 | -9.80839 | 120.94224 | 37893 ft | 480 kts | 298° |
| 2026-05-07 09:42 | -9.77536 | 120.88337 | 37895 ft | 480 kts | 298° |
| 2026-05-07 09:42 | -9.74241 | 120.82468 | 37889 ft | 480 kts | 298° |
| 2026-05-07 09:43 | -9.70943 | 120.76596 | 37878 ft | 479 kts | 298° |
| 2026-05-07 09:43 | -9.67646 | 120.70729 | 37891 ft | 478 kts | 298° |
| 2026-05-07 09:44 | -9.64353 | 120.64871 | 37883 ft | 478 kts | 298° |
| 2026-05-07 09:44 | -9.61057 | 120.59013 | 37882 ft | 478 kts | 298° |
| 2026-05-07 09:45 | -9.57780 | 120.53190 | 37880 ft | 479 kts | 298° |
| 2026-05-07 09:45 | -9.54479 | 120.47327 | 37883 ft | 479 kts | 298° |
| 2026-05-07 09:46 | -9.51179 | 120.41469 | 37881 ft | 479 kts | 298° |
| 2026-05-07 09:46 | -9.47878 | 120.35612 | 37898 ft | 478 kts | 298° |
| 2026-05-07 09:47 | -9.44602 | 120.29801 | 37893 ft | 478 kts | 298° |
| 2026-05-07 09:47 | -9.41286 | 120.23925 | 37882 ft | 477 kts | 298° |
| 2026-05-07 09:48 | -9.38012 | 120.18123 | 37874 ft | 477 kts | 298° |
| 2026-05-07 09:48 | -9.34694 | 120.12248 | 37870 ft | 478 kts | 298° |
| 2026-05-07 09:49 | -9.31419 | 120.06450 | 37872 ft | 478 kts | 298° |
| 2026-05-07 09:49 | -9.28117 | 120.00609 | 37877 ft | 478 kts | 298° |
| 2026-05-07 09:50 | -9.24820 | 119.94778 | 37879 ft | 478 kts | 298° |
| 2026-05-07 09:50 | -9.21515 | 119.88936 | 37876 ft | 478 kts | 298° |
| 2026-05-07 09:51 | -9.18205 | 119.83089 | 37866 ft | 479 kts | 298° |
| 2026-05-07 09:51 | -9.14899 | 119.77252 | 37873 ft | 478 kts | 298° |
| 2026-05-07 09:52 | -9.11585 | 119.71401 | 37865 ft | 479 kts | 298° |
| 2026-05-07 09:52 | -9.08274 | 119.65560 | 37881 ft | 478 kts | 298° |
| 2026-05-07 09:53 | -9.04988 | 119.59765 | 37870 ft | 478 kts | 298° |
| 2026-05-07 09:53 | -9.01682 | 119.53938 | 37879 ft | 477 kts | 298° |
| 2026-05-07 09:54 | -8.98355 | 119.48076 | 37853 ft | 478 kts | 298° |
| 2026-05-07 09:54 | -8.95061 | 119.42277 | 37856 ft | 478 kts | 298° |
| 2026-05-07 09:55 | -8.91744 | 119.36439 | 37866 ft | 480 kts | 298° |
| 2026-05-07 09:55 | -8.90076 | 119.33504 | 38128 ft | 482 kts | 298° |
| 2026-05-07 09:55 | -8.88409 | 119.30571 | 38596 ft | 480 kts | 298° |
| 2026-05-07 09:55 | -8.86751 | 119.27656 | 38997 ft | 478 kts | 298° |
| 2026-05-07 09:56 | -8.85093 | 119.24740 | 39357 ft | 477 kts | 298° |
| 2026-05-07 09:56 | -8.83448 | 119.21849 | 39693 ft | 476 kts | 298° |
| 2026-05-07 09:56 | -8.81788 | 119.18930 | 39850 ft | 480 kts | 298° |
| 2026-05-07 09:57 | -8.78494 | 119.13144 | 39888 ft | 471 kts | 298° |
| 2026-05-07 09:57 | -8.75218 | 119.07389 | 39868 ft | 474 kts | 298° |
| 2026-05-07 09:58 | -8.72482 | 119.02587 | 39868 ft | 474 kts | 298° |
| 2026-05-07 09:58 | -8.69196 | 118.96821 | 39892 ft | 473 kts | 298° |
| 2026-05-07 09:59 | -8.65898 | 118.91037 | 39874 ft | 476 kts | 298° |
| 2026-05-07 09:59 | -8.62594 | 118.85243 | 39894 ft | 477 kts | 298° |
| 2026-05-07 10:00 | -8.59274 | 118.79423 | 39895 ft | 479 kts | 298° |
| 2026-05-07 10:00 | -8.55946 | 118.73591 | 39909 ft | 479 kts | 298° |
| 2026-05-07 10:01 | -8.52613 | 118.67749 | 39909 ft | 479 kts | 298° |
| 2026-05-07 10:01 | -8.49329 | 118.61893 | 39902 ft | 478 kts | 298° |
| 2026-05-07 10:02 | -8.46058 | 118.56039 | 39895 ft | 478 kts | 298° |
| 2026-05-07 10:02 | -8.42796 | 118.50213 | 39889 ft | 477 kts | 298° |
| 2026-05-07 10:03 | -8.39530 | 118.44387 | 39862 ft | 476 kts | 298° |
| 2026-05-07 10:03 | -8.36277 | 118.38588 | 39861 ft | 475 kts | 298° |
| 2026-05-07 10:04 | -8.33022 | 118.32789 | 39856 ft | 474 kts | 298° |
| 2026-05-07 10:04 | -8.29779 | 118.27012 | 39858 ft | 474 kts | 298° |
| 2026-05-07 10:05 | -8.26524 | 118.21219 | 39859 ft | 474 kts | 298° |
| 2026-05-07 10:05 | -8.23268 | 118.15423 | 39862 ft | 475 kts | 298° |
| 2026-05-07 10:06 | -8.20004 | 118.09617 | 39868 ft | 476 kts | 298° |
| 2026-05-07 10:06 | -8.16733 | 118.03802 | 39880 ft | 477 kts | 298° |
| 2026-05-07 10:07 | -8.13458 | 117.97981 | 39877 ft | 477 kts | 298° |
| 2026-05-07 10:07 | -8.10198 | 117.92189 | 39880 ft | 478 kts | 298° |
| 2026-05-07 10:08 | -8.06915 | 117.86360 | 39882 ft | 478 kts | 298° |
| 2026-05-07 10:08 | -8.03610 | 117.80494 | 39869 ft | 478 kts | 298° |
| 2026-05-07 10:09 | -8.00343 | 117.74699 | 39865 ft | 479 kts | 298° |
| 2026-05-07 10:09 | -7.97052 | 117.68860 | 39862 ft | 479 kts | 298° |
| 2026-05-07 10:10 | -7.93757 | 117.63020 | 39866 ft | 479 kts | 298° |
| 2026-05-07 10:10 | -7.90462 | 117.57179 | 39851 ft | 479 kts | 298° |
| 2026-05-07 10:11 | -7.87162 | 117.51334 | 39856 ft | 479 kts | 298° |
| 2026-05-07 10:11 | -7.83865 | 117.45496 | 39852 ft | 479 kts | 298° |
| 2026-05-07 10:12 | -7.80572 | 117.39667 | 39846 ft | 479 kts | 298° |
| 2026-05-07 10:12 | -7.77272 | 117.33829 | 39845 ft | 479 kts | 298° |
| 2026-05-07 10:13 | -7.73974 | 117.27997 | 39846 ft | 479 kts | 298° |
| 2026-05-07 10:13 | -7.70673 | 117.22161 | 39844 ft | 479 kts | 298° |
| 2026-05-07 10:14 | -7.67368 | 117.16321 | 39841 ft | 480 kts | 298° |
| 2026-05-07 10:14 | -7.64063 | 117.10481 | 39846 ft | 481 kts | 298° |
| 2026-05-07 10:15 | -7.60743 | 117.04620 | 39846 ft | 481 kts | 298° |
| 2026-05-07 10:15 | -7.57426 | 116.98764 | 39854 ft | 481 kts | 298° |
| 2026-05-07 10:16 | -7.54106 | 116.92907 | 39855 ft | 481 kts | 298° |
| 2026-05-07 10:16 | -7.50796 | 116.87069 | 39855 ft | 481 kts | 298° |
| 2026-05-07 10:17 | -7.47475 | 116.81214 | 39852 ft | 481 kts | 298° |
| 2026-05-07 10:17 | -7.44151 | 116.75355 | 39841 ft | 481 kts | 298° |
| 2026-05-07 10:18 | -7.40827 | 116.69499 | 39837 ft | 482 kts | 298° |
| 2026-05-07 10:18 | -7.37499 | 116.63640 | 39841 ft | 482 kts | 298° |
| 2026-05-07 10:19 | -7.34172 | 116.57783 | 39845 ft | 482 kts | 298° |
| 2026-05-07 10:19 | -7.30839 | 116.51917 | 39843 ft | 483 kts | 298° |
| 2026-05-07 10:20 | -7.27499 | 116.46042 | 39843 ft | 483 kts | 298° |
| 2026-05-07 10:20 | -7.24160 | 116.40171 | 39850 ft | 484 kts | 298° |
| 2026-05-07 10:21 | -7.20812 | 116.34286 | 39847 ft | 484 kts | 298° |
| 2026-05-07 10:21 | -7.17468 | 116.28410 | 39850 ft | 484 kts | 298° |
| 2026-05-07 10:22 | -7.14122 | 116.22535 | 39863 ft | 483 kts | 298° |
| 2026-05-07 10:22 | -7.10802 | 116.16706 | 39859 ft | 482 kts | 298° |
| 2026-05-07 10:23 | -7.07467 | 116.10853 | 39855 ft | 482 kts | 298° |
| 2026-05-07 10:23 | -7.04117 | 116.04975 | 39849 ft | 481 kts | 298° |
| 2026-05-07 10:24 | -7.00808 | 115.99171 | 39844 ft | 480 kts | 298° |
| 2026-05-07 10:24 | -6.97489 | 115.93351 | 39835 ft | 480 kts | 298° |
| 2026-05-07 10:25 | -6.94159 | 115.87515 | 39837 ft | 480 kts | 298° |
| 2026-05-07 10:25 | -6.90842 | 115.81705 | 39836 ft | 480 kts | 298° |
| 2026-05-07 10:26 | -6.87511 | 115.75871 | 39836 ft | 480 kts | 298° |
| 2026-05-07 10:26 | -6.84182 | 115.70043 | 39841 ft | 480 kts | 298° |
| 2026-05-07 10:27 | -6.80852 | 115.64214 | 39842 ft | 481 kts | 298° |
| 2026-05-07 10:27 | -6.77520 | 115.58384 | 39840 ft | 481 kts | 298° |
| 2026-05-07 10:28 | -6.74179 | 115.52542 | 39844 ft | 481 kts | 298° |
| 2026-05-07 10:28 | -6.70840 | 115.46704 | 39841 ft | 482 kts | 298° |
| 2026-05-07 10:29 | -6.67498 | 115.40863 | 39843 ft | 482 kts | 298° |
| 2026-05-07 10:29 | -6.64157 | 115.35026 | 39840 ft | 482 kts | 298° |
| 2026-05-07 10:30 | -6.59144 | 115.26272 | 39840 ft | 481 kts | 299° |
| 2026-05-07 10:30 | -6.55825 | 115.20478 | 39839 ft | 481 kts | 299° |
| 2026-05-07 10:31 | -6.52461 | 115.14609 | 39835 ft | 481 kts | 299° |
| 2026-05-07 10:31 | -6.49140 | 115.08816 | 39835 ft | 481 kts | 299° |
| 2026-05-07 10:32 | -6.45798 | 115.02988 | 39833 ft | 481 kts | 299° |
| 2026-05-07 10:32 | -6.42463 | 114.97173 | 39839 ft | 480 kts | 299° |
| 2026-05-07 10:33 | -6.39128 | 114.91361 | 39836 ft | 480 kts | 299° |
| 2026-05-07 10:33 | -6.35796 | 114.85557 | 39834 ft | 479 kts | 299° |
| 2026-05-07 10:34 | -6.32465 | 114.79755 | 39834 ft | 479 kts | 299° |
| 2026-05-07 10:34 | -6.29135 | 114.73957 | 39834 ft | 479 kts | 299° |
| 2026-05-07 10:35 | -6.25801 | 114.68155 | 39832 ft | 479 kts | 299° |
| 2026-05-07 10:35 | -6.22472 | 114.62363 | 39830 ft | 479 kts | 299° |
| 2026-05-07 10:36 | -6.19145 | 114.56576 | 39835 ft | 479 kts | 299° |
| 2026-05-07 10:36 | -6.15811 | 114.50778 | 39834 ft | 479 kts | 299° |
| 2026-05-07 10:37 | -6.12481 | 114.44989 | 39836 ft | 479 kts | 299° |
| 2026-05-07 10:37 | -6.09147 | 114.39195 | 39835 ft | 478 kts | 299° |
| 2026-05-07 10:38 | -6.05814 | 114.33404 | 39829 ft | 478 kts | 299° |
| 2026-05-07 10:38 | -6.02482 | 114.27610 | 39812 ft | 480 kts | 299° |
| 2026-05-07 10:39 | -5.99158 | 114.21846 | 39820 ft | 481 kts | 299° |
| 2026-05-07 10:39 | -5.95801 | 114.16020 | 39825 ft | 482 kts | 299° |
| 2026-05-07 10:40 | -5.92267 | 114.10286 | 39834 ft | 483 kts | 302° |
| 2026-05-07 10:40 | -5.88623 | 114.04587 | 39875 ft | 482 kts | 301° |
| 2026-05-07 10:41 | -5.85036 | 113.98961 | 39866 ft | 480 kts | 301° |
| 2026-05-07 10:41 | -5.81437 | 113.93326 | 39850 ft | 479 kts | 301° |
| 2026-05-07 10:42 | -5.77843 | 113.87704 | 39837 ft | 477 kts | 301° |
| 2026-05-07 10:42 | -5.74262 | 113.82104 | 39822 ft | 476 kts | 301° |
| 2026-05-07 10:43 | -5.70683 | 113.76508 | 39810 ft | 476 kts | 302° |
| 2026-05-07 10:43 | -5.67104 | 113.70914 | 39818 ft | 476 kts | 301° |
| 2026-05-07 10:44 | -5.63522 | 113.65317 | 39800 ft | 477 kts | 302° |
| 2026-05-07 10:44 | -5.59934 | 113.59713 | 39805 ft | 479 kts | 302° |
| 2026-05-07 10:45 | -5.56336 | 113.54095 | 39809 ft | 480 kts | 302° |
| 2026-05-07 10:45 | -5.53333 | 113.49407 | 39848 ft | 480 kts | 302° |
| 2026-05-07 10:46 | -5.49713 | 113.43757 | 39849 ft | 480 kts | 302° |
| 2026-05-07 10:46 | -5.45516 | 113.37209 | 39853 ft | 480 kts | 302° |
| 2026-05-07 10:47 | -5.42487 | 113.32483 | 39816 ft | 481 kts | 302° |
| 2026-05-07 10:47 | -5.38866 | 113.26837 | 39818 ft | 482 kts | 302° |
| 2026-05-07 10:48 | -5.35232 | 113.21172 | 39825 ft | 482 kts | 302° |
| 2026-05-07 10:48 | -5.31604 | 113.15515 | 39852 ft | 482 kts | 302° |
| 2026-05-07 10:49 | -5.27987 | 113.09879 | 39845 ft | 481 kts | 302° |
| 2026-05-07 10:49 | -5.24382 | 113.04263 | 39808 ft | 481 kts | 302° |
| 2026-05-07 10:50 | -5.20735 | 112.98584 | 39807 ft | 482 kts | 302° |
| 2026-05-07 10:50 | -5.17119 | 112.92952 | 39810 ft | 483 kts | 302° |
| 2026-05-07 10:51 | -5.13480 | 112.87287 | 39818 ft | 484 kts | 302° |
| 2026-05-07 10:51 | -5.09828 | 112.81604 | 39829 ft | 485 kts | 302° |
| 2026-05-07 10:52 | -5.06178 | 112.75924 | 39851 ft | 484 kts | 302° |
| 2026-05-07 10:52 | -5.02527 | 112.70246 | 39832 ft | 485 kts | 302° |
| 2026-05-07 10:53 | -4.98877 | 112.64569 | 39850 ft | 483 kts | 302° |
| 2026-05-07 10:53 | -4.95237 | 112.58910 | 39829 ft | 483 kts | 302° |
| 2026-05-07 10:54 | -4.91587 | 112.53236 | 39798 ft | 484 kts | 303° |
| 2026-05-07 10:54 | -4.87934 | 112.47559 | 39796 ft | 486 kts | 303° |
| 2026-05-07 10:55 | -4.84262 | 112.41854 | 39800 ft | 487 kts | 303° |
| 2026-05-07 10:55 | -4.80579 | 112.36134 | 39813 ft | 489 kts | 303° |
| 2026-05-07 10:56 | -4.76908 | 112.30433 | 39830 ft | 491 kts | 303° |
| 2026-05-07 10:56 | -4.73204 | 112.24683 | 39841 ft | 492 kts | 303° |
| 2026-05-07 10:57 | -4.69488 | 112.18914 | 39849 ft | 493 kts | 303° |
| 2026-05-07 10:57 | -4.65765 | 112.13137 | 39850 ft | 493 kts | 303° |
| 2026-05-07 10:58 | -4.62052 | 112.07376 | 39857 ft | 492 kts | 302° |
| 2026-05-07 10:58 | -4.58341 | 112.01620 | 39821 ft | 492 kts | 303° |
| 2026-05-07 10:59 | -4.54630 | 111.95865 | 39808 ft | 492 kts | 303° |
| 2026-05-07 10:59 | -4.50905 | 111.90091 | 39815 ft | 493 kts | 303° |
| 2026-05-07 11:00 | -4.47181 | 111.84318 | 39820 ft | 494 kts | 303° |
| 2026-05-07 11:00 | -4.43450 | 111.78536 | 39834 ft | 494 kts | 303° |
| 2026-05-07 11:01 | -4.39713 | 111.72746 | 39849 ft | 494 kts | 303° |
| 2026-05-07 11:01 | -4.35978 | 111.66960 | 39846 ft | 494 kts | 303° |
| 2026-05-07 11:02 | -4.32251 | 111.61188 | 39840 ft | 493 kts | 303° |
| 2026-05-07 11:02 | -4.28526 | 111.55421 | 39837 ft | 492 kts | 303° |
| 2026-05-07 11:03 | -4.24807 | 111.49663 | 39818 ft | 492 kts | 303° |
| 2026-05-07 11:03 | -4.21083 | 111.43899 | 39811 ft | 493 kts | 303° |
| 2026-05-07 11:04 | -4.17359 | 111.38138 | 39809 ft | 493 kts | 304° |
| 2026-05-07 11:04 | -4.13625 | 111.32362 | 39815 ft | 495 kts | 304° |
| 2026-05-07 11:05 | -4.09878 | 111.26567 | 39817 ft | 496 kts | 304° |
| 2026-05-07 11:05 | -4.06151 | 111.20799 | 39842 ft | 496 kts | 303° |
| 2026-05-07 11:06 | -4.02394 | 111.14992 | 39846 ft | 497 kts | 303° |
| 2026-05-07 11:06 | -3.98639 | 111.09188 | 39841 ft | 497 kts | 304° |
| 2026-05-07 11:07 | -3.94881 | 111.03381 | 39843 ft | 496 kts | 304° |
| 2026-05-07 11:07 | -3.91119 | 110.97577 | 39823 ft | 497 kts | 304° |
| 2026-05-07 11:08 | -3.87355 | 110.91754 | 39817 ft | 498 kts | 304° |
| 2026-05-07 11:08 | -3.83590 | 110.85929 | 39840 ft | 498 kts | 304° |
| 2026-05-07 11:09 | -3.79824 | 110.80115 | 39828 ft | 498 kts | 304° |
| 2026-05-07 11:09 | -3.76046 | 110.74289 | 39834 ft | 498 kts | 304° |
| 2026-05-07 11:10 | -3.72266 | 110.68462 | 39821 ft | 499 kts | 304° |
| 2026-05-07 11:10 | -3.68490 | 110.62628 | 39824 ft | 500 kts | 304° |
| 2026-05-07 11:11 | -3.64701 | 110.56779 | 39825 ft | 500 kts | 304° |
| 2026-05-07 11:11 | -3.60913 | 110.50935 | 39828 ft | 501 kts | 304° |
| 2026-05-07 11:12 | -3.57120 | 110.45084 | 39829 ft | 501 kts | 304° |
| 2026-05-07 11:12 | -3.53346 | 110.39261 | 39836 ft | 501 kts | 304° |
| 2026-05-07 11:13 | -3.49343 | 110.33574 | 39840 ft | 500 kts | 309° |
| 2026-05-07 11:13 | -3.45147 | 110.28010 | 39848 ft | 499 kts | 308° |
| 2026-05-07 11:14 | -3.40982 | 110.22460 | 39839 ft | 498 kts | 308° |
| 2026-05-07 11:14 | -3.36822 | 110.16923 | 39825 ft | 497 kts | 308° |
| 2026-05-07 11:15 | -3.32663 | 110.11390 | 39821 ft | 497 kts | 308° |
| 2026-05-07 11:15 | -3.28507 | 110.05862 | 39809 ft | 497 kts | 308° |
| 2026-05-07 11:16 | -3.24352 | 110.00337 | 39817 ft | 497 kts | 308° |
| 2026-05-07 11:16 | -3.20197 | 109.94813 | 39805 ft | 498 kts | 309° |
| 2026-05-07 11:17 | -3.16028 | 109.89272 | 39820 ft | 498 kts | 308° |
| 2026-05-07 11:17 | -3.11855 | 109.83725 | 39815 ft | 499 kts | 308° |
| 2026-05-07 11:18 | -3.07680 | 109.78178 | 39807 ft | 500 kts | 308° |
| 2026-05-07 11:18 | -3.03488 | 109.72608 | 39840 ft | 500 kts | 308° |
| 2026-05-07 11:19 | -2.99293 | 109.67034 | 39838 ft | 501 kts | 308° |
| 2026-05-07 11:19 | -2.95100 | 109.61464 | 39814 ft | 501 kts | 308° |
| 2026-05-07 11:20 | -2.90905 | 109.55893 | 39831 ft | 501 kts | 308° |
| 2026-05-07 11:20 | -2.86715 | 109.50329 | 39835 ft | 500 kts | 308° |
| 2026-05-07 11:21 | -2.82531 | 109.44774 | 39836 ft | 500 kts | 308° |
| 2026-05-07 11:21 | -2.78355 | 109.39229 | 39830 ft | 498 kts | 308° |
| 2026-05-07 11:22 | -2.74212 | 109.33729 | 39805 ft | 498 kts | 308° |
| 2026-05-07 11:22 | -2.70045 | 109.28199 | 39803 ft | 498 kts | 308° |
| 2026-05-07 11:23 | -2.65955 | 109.22772 | 39807 ft | 498 kts | 308° |
| 2026-05-07 11:23 | -2.61734 | 109.17173 | 39822 ft | 513 kts | 308° |
| 2026-05-07 11:24 | -2.59611 | 109.14356 | 39820 ft | 500 kts | 308° |
| 2026-05-07 11:24 | -2.57529 | 109.11590 | 39819 ft | 495 kts | 308° |
| 2026-05-07 11:24 | -2.53376 | 109.06081 | 39819 ft | 498 kts | 308° |
| 2026-05-07 11:25 | -2.49194 | 109.00538 | 39821 ft | 499 kts | 308° |
| 2026-05-07 11:25 | -2.45025 | 108.95007 | 39816 ft | 499 kts | 308° |
| 2026-05-07 11:26 | -2.40849 | 108.89470 | 39828 ft | 500 kts | 308° |
| 2026-05-07 11:26 | -2.36650 | 108.83901 | 39838 ft | 501 kts | 308° |
| 2026-05-07 11:27 | -2.32456 | 108.78341 | 39838 ft | 502 kts | 308° |
| 2026-05-07 11:27 | -2.28257 | 108.72774 | 39849 ft | 500 kts | 308° |
| 2026-05-07 11:28 | -2.24079 | 108.67236 | 39847 ft | 499 kts | 308° |
| 2026-05-07 11:28 | -2.19925 | 108.61730 | 39833 ft | 497 kts | 308° |
| 2026-05-07 11:29 | -2.15765 | 108.56219 | 39817 ft | 496 kts | 308° |
| 2026-05-07 11:29 | -2.11608 | 108.50711 | 39815 ft | 495 kts | 307° |
| 2026-05-07 11:30 | -2.07496 | 108.45262 | 39805 ft | 494 kts | 308° |
| 2026-05-07 11:30 | -2.03343 | 108.39758 | 39791 ft | 494 kts | 308° |
| 2026-05-07 11:31 | -1.99223 | 108.34302 | 39796 ft | 494 kts | 308° |
| 2026-05-07 11:31 | -1.95078 | 108.28812 | 39803 ft | 495 kts | 308° |
| 2026-05-07 11:32 | -1.88841 | 108.20552 | 39812 ft | 497 kts | 308° |
| 2026-05-07 11:33 | -1.84684 | 108.15047 | 39817 ft | 497 kts | 308° |
| 2026-05-07 11:33 | -1.80512 | 108.09523 | 39815 ft | 498 kts | 307° |
| 2026-05-07 11:34 | -1.76333 | 108.03991 | 39818 ft | 499 kts | 307° |
| 2026-05-07 11:34 | -1.72147 | 107.98449 | 39822 ft | 499 kts | 307° |
| 2026-05-07 11:35 | -1.68669 | 107.93845 | 39817 ft | 499 kts | 307° |
| 2026-05-07 11:35 | -1.64497 | 107.88322 | 39820 ft | 499 kts | 307° |
| 2026-05-07 11:36 | -1.60319 | 107.82793 | 39821 ft | 499 kts | 307° |
| 2026-05-07 11:36 | -1.56132 | 107.77251 | 39815 ft | 499 kts | 307° |
| 2026-05-07 11:37 | -1.51951 | 107.71718 | 39800 ft | 499 kts | 308° |
| 2026-05-07 11:37 | -1.47766 | 107.66179 | 39800 ft | 500 kts | 308° |
| 2026-05-07 11:38 | -1.43573 | 107.60633 | 39802 ft | 500 kts | 307° |
| 2026-05-07 11:38 | -1.39381 | 107.55086 | 39810 ft | 501 kts | 307° |
| 2026-05-07 11:39 | -1.35185 | 107.49533 | 39811 ft | 502 kts | 307° |
| 2026-05-07 11:39 | -1.30975 | 107.43964 | 39815 ft | 502 kts | 307° |
| 2026-05-07 11:40 | -1.26789 | 107.38426 | 39820 ft | 502 kts | 307° |
| 2026-05-07 11:40 | -1.22583 | 107.32863 | 39823 ft | 502 kts | 307° |
| 2026-05-07 11:41 | -1.18380 | 107.27302 | 39820 ft | 501 kts | 307° |
| 2026-05-07 11:41 | -1.14181 | 107.21749 | 39812 ft | 501 kts | 307° |
| 2026-05-07 11:42 | -1.09985 | 107.16200 | 39812 ft | 500 kts | 307° |
| 2026-05-07 11:42 | -1.05790 | 107.10652 | 39809 ft | 500 kts | 307° |
| 2026-05-07 11:43 | -1.01602 | 107.05114 | 39805 ft | 499 kts | 307° |
| 2026-05-07 11:43 | -0.97419 | 106.99582 | 39806 ft | 499 kts | 307° |
| 2026-05-07 11:44 | -0.93229 | 106.94042 | 39805 ft | 499 kts | 307° |
| 2026-05-07 11:44 | -0.89047 | 106.88512 | 39804 ft | 499 kts | 307° |
| 2026-05-07 11:45 | -0.84864 | 106.82982 | 39805 ft | 499 kts | 307° |
| 2026-05-07 11:45 | -0.80684 | 106.77455 | 39806 ft | 499 kts | 307° |
| 2026-05-07 11:46 | -0.76492 | 106.71913 | 39805 ft | 499 kts | 307° |
| 2026-05-07 11:46 | -0.72310 | 106.66384 | 39815 ft | 499 kts | 307° |
| 2026-05-07 11:47 | -0.68126 | 106.60853 | 39816 ft | 498 kts | 307° |
| 2026-05-07 11:47 | -0.63960 | 106.55345 | 39756 ft | 495 kts | 307° |
| 2026-05-07 11:47 | -0.61824 | 106.52675 | 39315 ft | 493 kts | 311° |
| 2026-05-07 11:48 | -0.59416 | 106.50231 | 38633 ft | 496 kts | 318° |
| 2026-05-07 11:48 | -0.56811 | 106.47951 | 37788 ft | 499 kts | 319° |
| 2026-05-07 11:48 | -0.54211 | 106.45659 | 37018 ft | 500 kts | 319° |
| 2026-05-07 11:48 | -0.51615 | 106.43354 | 36250 ft | 501 kts | 319° |
| 2026-05-07 11:49 | -0.49004 | 106.41032 | 35465 ft | 502 kts | 319° |
| 2026-05-07 11:49 | -0.46390 | 106.38707 | 34664 ft | 504 kts | 319° |
| 2026-05-07 11:49 | -0.43780 | 106.36386 | 33881 ft | 505 kts | 319° |
| 2026-05-07 11:49 | -0.41140 | 106.34040 | 32968 ft | 506 kts | 319° |
| 2026-05-07 11:50 | -0.38506 | 106.31699 | 32223 ft | 506 kts | 319° |
| 2026-05-07 11:50 | -0.35882 | 106.29368 | 31923 ft | 509 kts | 319° |
| 2026-05-07 11:50 | -0.33214 | 106.26998 | 31809 ft | 515 kts | 319° |
| 2026-05-07 11:51 | -0.27855 | 106.22237 | 31804 ft | 516 kts | 319° |
| 2026-05-07 11:51 | -0.22493 | 106.17472 | 31804 ft | 516 kts | 319° |
| 2026-05-07 11:52 | -0.17132 | 106.12709 | 31805 ft | 515 kts | 319° |
| 2026-05-07 11:52 | -0.11782 | 106.07956 | 31807 ft | 515 kts | 319° |
| 2026-05-07 11:53 | -0.06428 | 106.03199 | 31806 ft | 516 kts | 319° |
| 2026-05-07 11:53 | -0.01061 | 105.98431 | 31803 ft | 516 kts | 319° |
| 2026-05-07 11:54 | 0.04307 | 105.93661 | 31800 ft | 517 kts | 319° |
| 2026-05-07 11:54 | 0.09647 | 105.88918 | 31799 ft | 517 kts | 319° |
| 2026-05-07 11:55 | 0.15017 | 105.84147 | 31801 ft | 517 kts | 319° |
| 2026-05-07 11:55 | 0.20390 | 105.79373 | 31801 ft | 517 kts | 319° |
| 2026-05-07 11:56 | 0.25765 | 105.74598 | 31799 ft | 517 kts | 319° |
| 2026-05-07 11:56 | 0.31131 | 105.69830 | 31801 ft | 517 kts | 319° |
| 2026-05-07 11:57 | 0.36504 | 105.65057 | 31799 ft | 517 kts | 319° |
| 2026-05-07 11:57 | 0.41881 | 105.60279 | 31798 ft | 518 kts | 319° |
| 2026-05-07 11:58 | 0.47263 | 105.55497 | 31801 ft | 518 kts | 319° |
| 2026-05-07 11:58 | 0.52652 | 105.50709 | 31802 ft | 518 kts | 319° |
| 2026-05-07 11:59 | 0.58036 | 105.45925 | 31775 ft | 521 kts | 319° |
| 2026-05-07 11:59 | 0.63502 | 105.41258 | 31633 ft | 506 kts | 325° |
| 2026-05-07 11:59 | 0.66394 | 105.39362 | 31495 ft | 491 kts | 331° |
| 2026-05-07 12:00 | 0.69346 | 105.37724 | 31211 ft | 480 kts | 332° |
| 2026-05-07 12:00 | 0.72254 | 105.36102 | 30662 ft | 477 kts | 332° |
| 2026-05-07 12:00 | 0.75132 | 105.34485 | 30108 ft | 473 kts | 332° |
| 2026-05-07 12:00 | 0.77954 | 105.32898 | 29545 ft | 470 kts | 332° |
| 2026-05-07 12:01 | 0.80817 | 105.31288 | 28966 ft | 465 kts | 332° |
| 2026-05-07 12:01 | 0.83589 | 105.29731 | 28400 ft | 461 kts | 332° |
| 2026-05-07 12:01 | 0.86373 | 105.28167 | 27832 ft | 457 kts | 332° |
| 2026-05-07 12:01 | 0.89164 | 105.26600 | 27249 ft | 453 kts | 332° |
| 2026-05-07 12:02 | 0.91866 | 105.25083 | 26716 ft | 449 kts | 332° |
| 2026-05-07 12:02 | 0.94575 | 105.23562 | 26192 ft | 445 kts | 332° |
| 2026-05-07 12:02 | 0.97268 | 105.22050 | 25646 ft | 441 kts | 332° |
| 2026-05-07 12:02 | 0.99931 | 105.20555 | 25123 ft | 438 kts | 332° |
| 2026-05-07 12:03 | 1.02571 | 105.19073 | 24615 ft | 434 kts | 332° |
| 2026-05-07 12:03 | 1.05199 | 105.17598 | 24100 ft | 431 kts | 332° |
| 2026-05-07 12:03 | 1.07806 | 105.16134 | 23602 ft | 428 kts | 332° |
| 2026-05-07 12:03 | 1.10395 | 105.14681 | 23056 ft | 424 kts | 332° |
| 2026-05-07 12:04 | 1.12935 | 105.13227 | 22488 ft | 420 kts | 328° |
| 2026-05-07 12:04 | 1.15172 | 105.11350 | 21912 ft | 421 kts | 314° |
| 2026-05-07 12:04 | 1.16897 | 105.08964 | 21086 ft | 427 kts | 299° |
| 2026-05-07 12:04 | 1.17943 | 105.06206 | 20598 ft | 424 kts | 283° |
| 2026-05-07 12:05 | 1.18246 | 105.03305 | 20197 ft | 419 kts | 269° |
| 2026-05-07 12:05 | 1.18060 | 105.00407 | 19646 ft | 416 kts | 265° |
| 2026-05-07 12:05 | 1.17792 | 104.97538 | 19109 ft | 414 kts | 265° |
| 2026-05-07 12:05 | 1.17587 | 104.94687 | 18562 ft | 411 kts | 267° |
| 2026-05-07 12:06 | 1.17453 | 104.91836 | 18008 ft | 410 kts | 268° |
| 2026-05-07 12:06 | 1.17366 | 104.89002 | 17425 ft | 407 kts | 269° |
| 2026-05-07 12:06 | 1.17301 | 104.86186 | 16885 ft | 402 kts | 269° |
| 2026-05-07 12:06 | 1.17244 | 104.83408 | 16341 ft | 399 kts | 269° |
| 2026-05-07 12:07 | 1.17188 | 104.80643 | 15806 ft | 395 kts | 269° |
| 2026-05-07 12:07 | 1.17131 | 104.77916 | 15429 ft | 389 kts | 269° |
| 2026-05-07 12:07 | 1.17071 | 104.75233 | 15092 ft | 385 kts | 269° |
| 2026-05-07 12:07 | 1.17010 | 104.72578 | 14752 ft | 383 kts | 269° |
| 2026-05-07 12:08 | 1.16949 | 104.69922 | 14406 ft | 381 kts | 269° |
| 2026-05-07 12:08 | 1.16889 | 104.67276 | 14064 ft | 379 kts | 269° |
| 2026-05-07 12:08 | 1.16829 | 104.64657 | 13724 ft | 376 kts | 269° |
| 2026-05-07 12:08 | 1.16769 | 104.62050 | 13356 ft | 373 kts | 269° |
| 2026-05-07 12:09 | 1.16838 | 104.59484 | 12835 ft | 369 kts | 280° |
| 2026-05-07 12:09 | 1.17665 | 104.57089 | 12325 ft | 364 kts | 301° |
| 2026-05-07 12:09 | 1.19192 | 104.55103 | 11791 ft | 359 kts | 313° |
| 2026-05-07 12:09 | 1.20850 | 104.53248 | 11277 ft | 356 kts | 313° |
| 2026-05-07 12:10 | 1.22482 | 104.51402 | 10763 ft | 354 kts | 312° |
| 2026-05-07 12:10 | 1.24084 | 104.49573 | 10500 ft | 343 kts | 312° |
| 2026-05-07 12:10 | 1.25618 | 104.47811 | 10374 ft | 330 kts | 311° |
| 2026-05-07 12:10 | 1.27096 | 104.46112 | 10267 ft | 317 kts | 311° |
| 2026-05-07 12:11 | 1.28510 | 104.44485 | 10171 ft | 304 kts | 311° |
| 2026-05-07 12:11 | 1.29872 | 104.42917 | 10073 ft | 293 kts | 311° |
| 2026-05-07 12:11 | 1.31181 | 104.41413 | 9982 ft | 281 kts | 311° |
| 2026-05-07 12:11 | 1.32438 | 104.39967 | 9886 ft | 270 kts | 311° |
| 2026-05-07 12:12 | 1.33660 | 104.38564 | 9701 ft | 266 kts | 311° |
| 2026-05-07 12:12 | 1.34859 | 104.37188 | 9260 ft | 265 kts | 311° |
| 2026-05-07 12:12 | 1.36061 | 104.35807 | 8919 ft | 262 kts | 311° |
| 2026-05-07 12:12 | 1.37258 | 104.34431 | 8549 ft | 264 kts | 311° |
| 2026-05-07 12:13 | 1.38478 | 104.33030 | 8035 ft | 271 kts | 311° |
| 2026-05-07 12:13 | 1.39737 | 104.31583 | 7499 ft | 279 kts | 311° |
| 2026-05-07 12:13 | 1.41032 | 104.30095 | 6943 ft | 287 kts | 311° |
| 2026-05-07 12:13 | 1.42343 | 104.28591 | 6589 ft | 287 kts | 311° |
| 2026-05-07 12:14 | 1.43649 | 104.27089 | 6255 ft | 284 kts | 311° |
| 2026-05-07 12:14 | 1.44942 | 104.25602 | 5913 ft | 282 kts | 311° |
| 2026-05-07 12:14 | 1.46226 | 104.24127 | 5573 ft | 282 kts | 311° |
| 2026-05-07 12:14 | 1.47505 | 104.22638 | 5439 ft | 282 kts | 310° |
| 2026-05-07 12:15 | 1.48764 | 104.21137 | 5290 ft | 283 kts | 310° |
| 2026-05-07 12:15 | 1.50034 | 104.19626 | 4843 ft | 285 kts | 310° |
| 2026-05-07 12:15 | 1.51329 | 104.18087 | 4351 ft | 285 kts | 310° |
| 2026-05-07 12:15 | 1.52588 | 104.16594 | 3811 ft | 282 kts | 310° |
| 2026-05-07 12:16 | 1.53850 | 104.15081 | 3263 ft | 282 kts | 306° |
| 2026-05-07 12:16 | 1.54695 | 104.13323 | 2768 ft | 279 kts | 290° |
| 2026-05-07 12:16 | 1.55348 | 104.11487 | 2886 ft | 279 kts | 284° |
| 2026-05-07 12:16 | 1.55475 | 104.09579 | 2656 ft | 275 kts | 259° |
| 2026-05-07 12:17 | 1.54733 | 104.07872 | 2525 ft | 267 kts | 232° |
| 2026-05-07 12:17 | 1.53558 | 104.06451 | 2497 ft | 260 kts | 227° |
| 2026-05-07 12:17 | 1.52205 | 104.05341 | 2514 ft | 244 kts | 210° |
| 2026-05-07 12:17 | 1.50747 | 104.04602 | 2514 ft | 227 kts | 203° |
| 2026-05-07 12:18 | 1.49379 | 104.04023 | 2476 ft | 199 kts | 202° |
| 2026-05-07 12:18 | 1.48202 | 104.03503 | 2232 ft | 170 kts | 202° |
| 2026-05-07 12:18 | 1.47261 | 104.03113 | 2040 ft | 151 kts | 202° |
| 2026-05-07 12:18 | 1.46319 | 104.02687 | 1826 ft | 146 kts | 202° |
| 2026-05-07 12:19 | 1.45391 | 104.02294 | 1648 ft | 146 kts | 201° |
| 2026-05-07 12:19 | 1.44462 | 104.01886 | 1455 ft | 147 kts | 202° |
| 2026-05-07 12:19 | 1.43527 | 104.01484 | 1269 ft | 145 kts | 201° |
| 2026-05-07 12:19 | 1.42607 | 104.01085 | 1076 ft | 144 kts | 201° |
| 2026-05-07 12:20 | 1.41682 | 104.00683 | 898 ft | 145 kts | 201° |
| 2026-05-07 12:20 | 1.40757 | 104.00286 | 719 ft | 145 kts | 201° |
| 2026-05-07 12:20 | 1.40157 | 104.00023 | 605 ft | 144 kts | 201° |
| 2026-05-07 12:20 | 1.38920 | 103.99487 | 317 ft | 144 kts | 202° |
| 2026-05-07 12:21 | 1.38310 | 103.99222 | 174 ft | 143 kts | 203° |
| 2026-05-07 12:21 | 1.37405 | 103.98810 | 47 ft | 140 kts | 204° |
| 2026-05-07 12:21 | 1.36652 | 103.98488 | 35 ft | 87 kts | 202° |
| 2026-05-07 12:21 | 1.36309 | 103.98339 | 35 ft | 31 kts | 201° |
| 2026-05-07 12:22 | 1.36132 | 103.98284 | 35 ft | 24 kts | 187° |
| 2026-05-07 12:22 | 1.35971 | 103.98279 | 35 ft | 23 kts | 177° |
| 2026-05-07 12:22 | 1.35831 | 103.98305 | 35 ft | 18 kts | 173° |
| 2026-05-07 12:22 | 1.35797 | 103.98309 | 35 ft | 0 kts | 175° |
| 2026-05-07 12:23 | 1.35779 | 103.98310 | 35 ft | 4 kts | 181° |
| 2026-05-07 12:23 | 1.35756 | 103.98305 | 35 ft | 0 kts | 202° |
| 2026-05-07 12:25 | 1.35747 | 103.98301 | 35 ft | 4 kts | 202° |
| 2026-05-07 12:25 | 1.35705 | 103.98283 | 35 ft | 9 kts | 202° |
| 2026-05-07 12:26 | 1.35634 | 103.98253 | 35 ft | 13 kts | 203° |
| 2026-05-07 12:26 | 1.35540 | 103.98212 | 35 ft | 16 kts | 204° |
| 2026-05-07 12:26 | 1.35431 | 103.98164 | 35 ft | 18 kts | 202° |
| 2026-05-07 12:26 | 1.35335 | 103.98163 | 35 ft | 12 kts | 130° |
| 2026-05-07 12:27 | 1.35353 | 103.98225 | 35 ft | 12 kts | 34° |
| 2026-05-07 12:27 | 1.35406 | 103.98252 | 35 ft | 4 kts | 26° |
| 2026-05-07 12:27 | 1.35451 | 103.98272 | 35 ft | 10 kts | 21° |
| 2026-05-07 12:27 | 1.35532 | 103.98306 | 35 ft | 15 kts | 25° |
| 2026-05-07 12:28 | 1.35635 | 103.98352 | 35 ft | 18 kts | 23° |
| 2026-05-07 12:28 | 1.35758 | 103.98405 | 35 ft | 21 kts | 22° |
| 2026-05-07 12:28 | 1.35897 | 103.98464 | 35 ft | 23 kts | 24° |
| 2026-05-07 12:28 | 1.36047 | 103.98528 | 35 ft | 24 kts | 21° |
| 2026-05-07 12:29 | 1.36209 | 103.98591 | 35 ft | 26 kts | 21° |
| 2026-05-07 12:29 | 1.36378 | 103.98663 | 35 ft | 26 kts | 24° |
| 2026-05-07 12:29 | 1.36522 | 103.98726 | 35 ft | 18 kts | 23° |
| 2026-05-07 12:29 | 1.36637 | 103.98774 | 35 ft | 19 kts | 22° |
| 2026-05-07 12:30 | 1.36745 | 103.98817 | 35 ft | 7 kts | 22° |
| 2026-05-07 12:30 | 1.36797 | 103.98847 | 35 ft | 9 kts | 58° |
| 2026-05-07 12:30 | 1.36799 | 103.98877 | 35 ft | 0 kts | 105° |
| 2026-05-07 12:32 | 1.36795 | 103.98893 | 20 ft | 5 kts | 105° |
| 2026-05-07 12:32 | 1.36779 | 103.98943 | 35 ft | 10 kts | 111° |
| 2026-05-07 12:32 | 1.36746 | 103.99015 | 35 ft | 11 kts | 115° |
| 2026-05-07 12:32 | 1.36724 | 103.99092 | 35 ft | 11 kts | 66° |